<?xml version="1.0" encoding="UTF-8" standalone="no" ?>
<gpx xmlns="http://www.topografix.com/GPX/1/1" xmlns:xsi="http://www.w3.org/2001/XMLSchema-instance" xsi:schemaLocation="http://www.topografix.com/GPX/1/1 http://www.topografix.com/GPX/1/1/gpx.xsd" version="1.1" creator="VisuGPX - https://www.visugpx.com">
  <metadata>
    <name>le pic de bassia en boucle depuis le col de oueil lusent </name>
    <desc><![CDATA[à faire par beau temps , la montée au pic de castillon n\'est pas pas toujours balisée]]></desc>
  </metadata>
  <trk>
    <name><![CDATA[le pic de bassia en boucle depuis le col de oueil lusent _1]]></name>
    <trkseg>
      <trkpt lat="42.9915" lon="0.31668">
        <ele>1241</ele>
        <time>2014-10-19T10:06:36Z</time>
      </trkpt>
      <trkpt lat="42.99147" lon="0.3167">
        <ele>1241</ele>
        <time>2014-10-19T10:06:47Z</time>
      </trkpt>
      <trkpt lat="42.99145" lon="0.31675">
        <ele>1240</ele>
        <time>2014-10-19T10:06:55Z</time>
      </trkpt>
      <trkpt lat="42.99144" lon="0.31677">
        <ele>1240</ele>
        <time>2014-10-19T10:06:57Z</time>
      </trkpt>
      <trkpt lat="42.99141" lon="0.31682">
        <ele>1240</ele>
        <time>2014-10-19T10:07:01Z</time>
      </trkpt>
      <trkpt lat="42.99135" lon="0.31685">
        <ele>1240</ele>
        <time>2014-10-19T10:07:08Z</time>
      </trkpt>
      <trkpt lat="42.99133" lon="0.31689">
        <ele>1240</ele>
        <time>2014-10-19T10:07:12Z</time>
      </trkpt>
      <trkpt lat="42.99132" lon="0.31691">
        <ele>1240</ele>
        <time>2014-10-19T10:07:15Z</time>
      </trkpt>
      <trkpt lat="42.9913" lon="0.31693">
        <ele>1240</ele>
        <time>2014-10-19T10:07:21Z</time>
      </trkpt>
      <trkpt lat="42.99129" lon="0.31694">
        <ele>1240</ele>
        <time>2014-10-19T10:07:23Z</time>
      </trkpt>
      <trkpt lat="42.99119" lon="0.31703">
        <ele>1239</ele>
        <time>2014-10-19T10:07:37Z</time>
      </trkpt>
      <trkpt lat="42.99116" lon="0.31706">
        <ele>1239</ele>
        <time>2014-10-19T10:07:49Z</time>
      </trkpt>
      <trkpt lat="42.99112" lon="0.31705">
        <ele>1239</ele>
        <time>2014-10-19T10:07:53Z</time>
      </trkpt>
      <trkpt lat="42.99083" lon="0.31685">
        <ele>1240</ele>
        <time>2014-10-19T10:08:26Z</time>
      </trkpt>
      <trkpt lat="42.99071" lon="0.31676">
        <ele>1240</ele>
        <time>2014-10-19T10:08:39Z</time>
      </trkpt>
      <trkpt lat="42.99067" lon="0.31675">
        <ele>1241</ele>
        <time>2014-10-19T10:08:45Z</time>
      </trkpt>
      <trkpt lat="42.99044" lon="0.31669">
        <ele>1243</ele>
        <time>2014-10-19T10:09:07Z</time>
      </trkpt>
      <trkpt lat="42.99037" lon="0.31659">
        <ele>1243</ele>
        <time>2014-10-19T10:09:39Z</time>
      </trkpt>
      <trkpt lat="42.99019" lon="0.31641">
        <ele>1244</ele>
        <time>2014-10-19T10:10:04Z</time>
      </trkpt>
      <trkpt lat="42.99013" lon="0.3164">
        <ele>1245</ele>
        <time>2014-10-19T10:10:17Z</time>
      </trkpt>
      <trkpt lat="42.99015" lon="0.31639">
        <ele>1244</ele>
        <time>2014-10-19T10:10:21Z</time>
      </trkpt>
      <trkpt lat="42.99011" lon="0.31637">
        <ele>1245</ele>
        <time>2014-10-19T10:11:09Z</time>
      </trkpt>
      <trkpt lat="42.99007" lon="0.31637">
        <ele>1245</ele>
        <time>2014-10-19T10:11:10Z</time>
      </trkpt>
      <trkpt lat="42.98998" lon="0.31638">
        <ele>1260</ele>
        <time>2014-10-19T10:11:16Z</time>
      </trkpt>
      <trkpt lat="42.98994" lon="0.31625">
        <ele>1260</ele>
        <time>2014-10-19T10:11:30Z</time>
      </trkpt>
      <trkpt lat="42.98989" lon="0.31618">
        <ele>1260</ele>
        <time>2014-10-19T10:12:14Z</time>
      </trkpt>
      <trkpt lat="42.98984" lon="0.31619">
        <ele>1260</ele>
        <time>2014-10-19T10:12:20Z</time>
      </trkpt>
      <trkpt lat="42.98967" lon="0.3163">
        <ele>1263</ele>
        <time>2014-10-19T10:12:47Z</time>
      </trkpt>
      <trkpt lat="42.98958" lon="0.31633">
        <ele>1265</ele>
        <time>2014-10-19T10:12:57Z</time>
      </trkpt>
      <trkpt lat="42.98953" lon="0.31631">
        <ele>1265</ele>
        <time>2014-10-19T10:13:03Z</time>
      </trkpt>
      <trkpt lat="42.98944" lon="0.31634">
        <ele>1267</ele>
        <time>2014-10-19T10:13:12Z</time>
      </trkpt>
      <trkpt lat="42.98935" lon="0.31633">
        <ele>1268</ele>
        <time>2014-10-19T10:13:49Z</time>
      </trkpt>
      <trkpt lat="42.98922" lon="0.3163">
        <ele>1269</ele>
        <time>2014-10-19T10:14:18Z</time>
      </trkpt>
      <trkpt lat="42.98905" lon="0.31636">
        <ele>1291</ele>
        <time>2014-10-19T10:14:55Z</time>
      </trkpt>
      <trkpt lat="42.98899" lon="0.31643">
        <ele>1291</ele>
        <time>2014-10-19T10:15:14Z</time>
      </trkpt>
      <trkpt lat="42.98886" lon="0.31641">
        <ele>1295</ele>
        <time>2014-10-19T10:15:34Z</time>
      </trkpt>
      <trkpt lat="42.98882" lon="0.31641">
        <ele>1296</ele>
        <time>2014-10-19T10:15:40Z</time>
      </trkpt>
      <trkpt lat="42.98863" lon="0.31631">
        <ele>1300</ele>
        <time>2014-10-19T10:16:12Z</time>
      </trkpt>
      <trkpt lat="42.98861" lon="0.31629">
        <ele>1300</ele>
        <time>2014-10-19T10:16:15Z</time>
      </trkpt>
      <trkpt lat="42.98859" lon="0.31631">
        <ele>1301</ele>
        <time>2014-10-19T10:16:19Z</time>
      </trkpt>
      <trkpt lat="42.9886" lon="0.31633">
        <ele>1301</ele>
        <time>2014-10-19T10:16:23Z</time>
      </trkpt>
      <trkpt lat="42.98858" lon="0.31639">
        <ele>1302</ele>
        <time>2014-10-19T10:16:31Z</time>
      </trkpt>
      <trkpt lat="42.98857" lon="0.31641">
        <ele>1302</ele>
        <time>2014-10-19T10:16:42Z</time>
      </trkpt>
      <trkpt lat="42.98835" lon="0.31628">
        <ele>1305</ele>
        <time>2014-10-19T10:17:07Z</time>
      </trkpt>
      <trkpt lat="42.98834" lon="0.31626">
        <ele>1305</ele>
        <time>2014-10-19T10:17:12Z</time>
      </trkpt>
      <trkpt lat="42.98833" lon="0.31625">
        <ele>1331</ele>
        <time>2014-10-19T10:17:24Z</time>
      </trkpt>
      <trkpt lat="42.98831" lon="0.31621">
        <ele>1331</ele>
        <time>2014-10-19T10:17:29Z</time>
      </trkpt>
      <trkpt lat="42.9883" lon="0.3162">
        <ele>1331</ele>
        <time>2014-10-19T10:17:35Z</time>
      </trkpt>
      <trkpt lat="42.98826" lon="0.31617">
        <ele>1331</ele>
        <time>2014-10-19T10:18:03Z</time>
      </trkpt>
      <trkpt lat="42.98821" lon="0.31617">
        <ele>1332</ele>
        <time>2014-10-19T10:18:07Z</time>
      </trkpt>
      <trkpt lat="42.98816" lon="0.31619">
        <ele>1333</ele>
        <time>2014-10-19T10:18:12Z</time>
      </trkpt>
      <trkpt lat="42.98812" lon="0.31615">
        <ele>1333</ele>
        <time>2014-10-19T10:18:20Z</time>
      </trkpt>
      <trkpt lat="42.98804" lon="0.31602">
        <ele>1334</ele>
        <time>2014-10-19T10:18:50Z</time>
      </trkpt>
      <trkpt lat="42.98798" lon="0.31595">
        <ele>1336</ele>
        <time>2014-10-19T10:19:03Z</time>
      </trkpt>
      <trkpt lat="42.98793" lon="0.31596">
        <ele>1338</ele>
        <time>2014-10-19T10:19:12Z</time>
      </trkpt>
      <trkpt lat="42.98779" lon="0.3159">
        <ele>1343</ele>
        <time>2014-10-19T10:19:28Z</time>
      </trkpt>
      <trkpt lat="42.98774" lon="0.31586">
        <ele>1345</ele>
        <time>2014-10-19T10:19:33Z</time>
      </trkpt>
      <trkpt lat="42.98768" lon="0.31585">
        <ele>1348</ele>
        <time>2014-10-19T10:19:58Z</time>
      </trkpt>
      <trkpt lat="42.9877" lon="0.31585">
        <ele>1347</ele>
        <time>2014-10-19T10:22:31Z</time>
      </trkpt>
      <trkpt lat="42.98761" lon="0.31589">
        <ele>1350</ele>
        <time>2014-10-19T10:27:05Z</time>
      </trkpt>
      <trkpt lat="42.98753" lon="0.31587">
        <ele>1355</ele>
        <time>2014-10-19T10:27:23Z</time>
      </trkpt>
      <trkpt lat="42.98749" lon="0.31586">
        <ele>1361</ele>
        <time>2014-10-19T10:27:35Z</time>
      </trkpt>
      <trkpt lat="42.9874" lon="0.31586">
        <ele>1366</ele>
        <time>2014-10-19T10:27:53Z</time>
      </trkpt>
      <trkpt lat="42.98737" lon="0.31595">
        <ele>1370</ele>
        <time>2014-10-19T10:28:23Z</time>
      </trkpt>
      <trkpt lat="42.98739" lon="0.31605">
        <ele>1372</ele>
        <time>2014-10-19T10:29:07Z</time>
      </trkpt>
      <trkpt lat="42.98738" lon="0.31611">
        <ele>1373</ele>
        <time>2014-10-19T10:29:42Z</time>
      </trkpt>
      <trkpt lat="42.98734" lon="0.31626">
        <ele>1375</ele>
        <time>2014-10-19T10:29:52Z</time>
      </trkpt>
      <trkpt lat="42.98731" lon="0.3163">
        <ele>1376</ele>
        <time>2014-10-19T10:30:02Z</time>
      </trkpt>
      <trkpt lat="42.98726" lon="0.31634">
        <ele>1377</ele>
        <time>2014-10-19T10:30:13Z</time>
      </trkpt>
      <trkpt lat="42.98723" lon="0.3164">
        <ele>1377</ele>
        <time>2014-10-19T10:30:18Z</time>
      </trkpt>
      <trkpt lat="42.98721" lon="0.31644">
        <ele>1377</ele>
        <time>2014-10-19T10:30:24Z</time>
      </trkpt>
      <trkpt lat="42.98717" lon="0.3165">
        <ele>1378</ele>
        <time>2014-10-19T10:30:51Z</time>
      </trkpt>
      <trkpt lat="42.98702" lon="0.31661">
        <ele>1381</ele>
        <time>2014-10-19T10:31:03Z</time>
      </trkpt>
      <trkpt lat="42.98698" lon="0.31666">
        <ele>1382</ele>
        <time>2014-10-19T10:31:07Z</time>
      </trkpt>
      <trkpt lat="42.98694" lon="0.31666">
        <ele>1384</ele>
        <time>2014-10-19T10:31:15Z</time>
      </trkpt>
      <trkpt lat="42.98686" lon="0.31661">
        <ele>1386</ele>
        <time>2014-10-19T10:31:50Z</time>
      </trkpt>
      <trkpt lat="42.98681" lon="0.31658">
        <ele>1387</ele>
        <time>2014-10-19T10:31:55Z</time>
      </trkpt>
      <trkpt lat="42.98676" lon="0.3166">
        <ele>1388</ele>
        <time>2014-10-19T10:31:59Z</time>
      </trkpt>
      <trkpt lat="42.98667" lon="0.31663">
        <ele>1390</ele>
        <time>2014-10-19T10:32:22Z</time>
      </trkpt>
      <trkpt lat="42.98662" lon="0.31664">
        <ele>1393</ele>
        <time>2014-10-19T10:32:38Z</time>
      </trkpt>
      <trkpt lat="42.98668" lon="0.31658">
        <ele>1389</ele>
        <time>2014-10-19T10:33:19Z</time>
      </trkpt>
      <trkpt lat="42.98662" lon="0.31652">
        <ele>1394</ele>
        <time>2014-10-19T10:37:28Z</time>
      </trkpt>
      <trkpt lat="42.98651" lon="0.31651">
        <ele>1395</ele>
        <time>2014-10-19T10:37:36Z</time>
      </trkpt>
      <trkpt lat="42.98643" lon="0.31657">
        <ele>1395</ele>
        <time>2014-10-19T10:37:46Z</time>
      </trkpt>
      <trkpt lat="42.98634" lon="0.31658">
        <ele>1394</ele>
        <time>2014-10-19T10:38:17Z</time>
      </trkpt>
      <trkpt lat="42.98622" lon="0.31654">
        <ele>1394</ele>
        <time>2014-10-19T10:38:54Z</time>
      </trkpt>
      <trkpt lat="42.98618" lon="0.31652">
        <ele>1394</ele>
        <time>2014-10-19T10:39:07Z</time>
      </trkpt>
      <trkpt lat="42.9861" lon="0.31643">
        <ele>1394</ele>
        <time>2014-10-19T10:39:25Z</time>
      </trkpt>
      <trkpt lat="42.98608" lon="0.31638">
        <ele>1395</ele>
        <time>2014-10-19T10:39:32Z</time>
      </trkpt>
      <trkpt lat="42.98605" lon="0.31634">
        <ele>1395</ele>
        <time>2014-10-19T10:39:48Z</time>
      </trkpt>
      <trkpt lat="42.98599" lon="0.31631">
        <ele>1395</ele>
        <time>2014-10-19T10:39:55Z</time>
      </trkpt>
      <trkpt lat="42.98572" lon="0.31596">
        <ele>1398</ele>
        <time>2014-10-19T10:40:23Z</time>
      </trkpt>
      <trkpt lat="42.98575" lon="0.31586">
        <ele>1400</ele>
        <time>2014-10-19T10:40:37Z</time>
      </trkpt>
      <trkpt lat="42.98578" lon="0.31577">
        <ele>1402</ele>
        <time>2014-10-19T10:41:12Z</time>
      </trkpt>
      <trkpt lat="42.98577" lon="0.31573">
        <ele>1401</ele>
        <time>2014-10-19T10:41:20Z</time>
      </trkpt>
      <trkpt lat="42.98575" lon="0.31574">
        <ele>1401</ele>
        <time>2014-10-19T10:41:39Z</time>
      </trkpt>
      <trkpt lat="42.98574" lon="0.31575">
        <ele>1401</ele>
        <time>2014-10-19T10:42:11Z</time>
      </trkpt>
      <trkpt lat="42.98573" lon="0.31577">
        <ele>1401</ele>
        <time>2014-10-19T10:42:33Z</time>
      </trkpt>
      <trkpt lat="42.98575" lon="0.31579">
        <ele>1402</ele>
        <time>2014-10-19T10:45:08Z</time>
      </trkpt>
      <trkpt lat="42.98576" lon="0.3158">
        <ele>1402</ele>
        <time>2014-10-19T10:45:18Z</time>
      </trkpt>
      <trkpt lat="42.98571" lon="0.31578">
        <ele>1401</ele>
        <time>2014-10-19T10:47:08Z</time>
      </trkpt>
      <trkpt lat="42.98564" lon="0.31574">
        <ele>1400</ele>
        <time>2014-10-19T10:47:27Z</time>
      </trkpt>
      <trkpt lat="42.98554" lon="0.31573">
        <ele>1399</ele>
        <time>2014-10-19T10:47:37Z</time>
      </trkpt>
      <trkpt lat="42.9855" lon="0.31575">
        <ele>1399</ele>
        <time>2014-10-19T10:47:42Z</time>
      </trkpt>
      <trkpt lat="42.98548" lon="0.31581">
        <ele>1399</ele>
        <time>2014-10-19T10:47:46Z</time>
      </trkpt>
      <trkpt lat="42.98544" lon="0.31582">
        <ele>1398</ele>
        <time>2014-10-19T10:47:50Z</time>
      </trkpt>
      <trkpt lat="42.98513" lon="0.31591">
        <ele>1395</ele>
        <time>2014-10-19T10:48:22Z</time>
      </trkpt>
      <trkpt lat="42.98487" lon="0.31604">
        <ele>1405</ele>
        <time>2014-10-19T10:48:57Z</time>
      </trkpt>
      <trkpt lat="42.98478" lon="0.3161">
        <ele>1406</ele>
        <time>2014-10-19T10:49:11Z</time>
      </trkpt>
      <trkpt lat="42.98475" lon="0.31606">
        <ele>1407</ele>
        <time>2014-10-19T10:49:17Z</time>
      </trkpt>
      <trkpt lat="42.98465" lon="0.31583">
        <ele>1410</ele>
        <time>2014-10-19T10:49:48Z</time>
      </trkpt>
      <trkpt lat="42.98462" lon="0.31578">
        <ele>1411</ele>
        <time>2014-10-19T10:49:58Z</time>
      </trkpt>
      <trkpt lat="42.98451" lon="0.31566">
        <ele>1414</ele>
        <time>2014-10-19T10:50:24Z</time>
      </trkpt>
      <trkpt lat="42.98448" lon="0.31571">
        <ele>1415</ele>
        <time>2014-10-19T10:50:36Z</time>
      </trkpt>
      <trkpt lat="42.98444" lon="0.31591">
        <ele>1417</ele>
        <time>2014-10-19T10:51:00Z</time>
      </trkpt>
      <trkpt lat="42.98437" lon="0.31599">
        <ele>1418</ele>
        <time>2014-10-19T10:51:17Z</time>
      </trkpt>
      <trkpt lat="42.98435" lon="0.31605">
        <ele>1418</ele>
        <time>2014-10-19T10:51:23Z</time>
      </trkpt>
      <trkpt lat="42.98433" lon="0.31611">
        <ele>1417</ele>
        <time>2014-10-19T10:51:28Z</time>
      </trkpt>
      <trkpt lat="42.9843" lon="0.31625">
        <ele>1416</ele>
        <time>2014-10-19T10:51:42Z</time>
      </trkpt>
      <trkpt lat="42.98428" lon="0.3163">
        <ele>1416</ele>
        <time>2014-10-19T10:51:50Z</time>
      </trkpt>
      <trkpt lat="42.9842" lon="0.3163">
        <ele>1416</ele>
        <time>2014-10-19T10:52:08Z</time>
      </trkpt>
      <trkpt lat="42.98417" lon="0.31612">
        <ele>1419</ele>
        <time>2014-10-19T10:52:31Z</time>
      </trkpt>
      <trkpt lat="42.98412" lon="0.31594">
        <ele>1442</ele>
        <time>2014-10-19T10:52:51Z</time>
      </trkpt>
      <trkpt lat="42.98404" lon="0.31594">
        <ele>1446</ele>
        <time>2014-10-19T10:53:26Z</time>
      </trkpt>
      <trkpt lat="42.98395" lon="0.31609">
        <ele>1452</ele>
        <time>2014-10-19T10:53:43Z</time>
      </trkpt>
      <trkpt lat="42.98391" lon="0.31621">
        <ele>1453</ele>
        <time>2014-10-19T10:54:01Z</time>
      </trkpt>
      <trkpt lat="42.98385" lon="0.31614">
        <ele>1455</ele>
        <time>2014-10-19T10:54:33Z</time>
      </trkpt>
      <trkpt lat="42.98384" lon="0.31608">
        <ele>1456</ele>
        <time>2014-10-19T10:54:43Z</time>
      </trkpt>
      <trkpt lat="42.9838" lon="0.31598">
        <ele>1457</ele>
        <time>2014-10-19T10:55:06Z</time>
      </trkpt>
      <trkpt lat="42.98378" lon="0.31593">
        <ele>1458</ele>
        <time>2014-10-19T10:55:28Z</time>
      </trkpt>
      <trkpt lat="42.98375" lon="0.31583">
        <ele>1458</ele>
        <time>2014-10-19T10:55:57Z</time>
      </trkpt>
      <trkpt lat="42.98371" lon="0.31579">
        <ele>1460</ele>
        <time>2014-10-19T10:56:08Z</time>
      </trkpt>
      <trkpt lat="42.98367" lon="0.31573">
        <ele>1462</ele>
        <time>2014-10-19T10:56:19Z</time>
      </trkpt>
      <trkpt lat="42.9837" lon="0.31554">
        <ele>1459</ele>
        <time>2014-10-19T10:56:30Z</time>
      </trkpt>
      <trkpt lat="42.9837" lon="0.31552">
        <ele>1458</ele>
        <time>2014-10-19T10:56:31Z</time>
      </trkpt>
      <trkpt lat="42.9837" lon="0.3155">
        <ele>1458</ele>
        <time>2014-10-19T10:56:33Z</time>
      </trkpt>
      <trkpt lat="42.98369" lon="0.31547">
        <ele>1458</ele>
        <time>2014-10-19T10:56:42Z</time>
      </trkpt>
      <trkpt lat="42.98367" lon="0.31546">
        <ele>1459</ele>
        <time>2014-10-19T10:56:46Z</time>
      </trkpt>
      <trkpt lat="42.98362" lon="0.3155">
        <ele>1461</ele>
        <time>2014-10-19T10:56:56Z</time>
      </trkpt>
      <trkpt lat="42.9836" lon="0.31558">
        <ele>1463</ele>
        <time>2014-10-19T10:57:05Z</time>
      </trkpt>
      <trkpt lat="42.98359" lon="0.31559">
        <ele>1464</ele>
        <time>2014-10-19T10:57:08Z</time>
      </trkpt>
      <trkpt lat="42.98357" lon="0.31563">
        <ele>1465</ele>
        <time>2014-10-19T10:57:24Z</time>
      </trkpt>
      <trkpt lat="42.98354" lon="0.31567">
        <ele>1467</ele>
        <time>2014-10-19T10:57:32Z</time>
      </trkpt>
      <trkpt lat="42.98354" lon="0.3157">
        <ele>1469</ele>
        <time>2014-10-19T10:57:36Z</time>
      </trkpt>
      <trkpt lat="42.98351" lon="0.31575">
        <ele>1471</ele>
        <time>2014-10-19T10:57:43Z</time>
      </trkpt>
      <trkpt lat="42.98351" lon="0.31581">
        <ele>1473</ele>
        <time>2014-10-19T10:57:59Z</time>
      </trkpt>
      <trkpt lat="42.98344" lon="0.31588">
        <ele>1479</ele>
        <time>2014-10-19T10:58:59Z</time>
      </trkpt>
      <trkpt lat="42.9833" lon="0.31608">
        <ele>1500</ele>
        <time>2014-10-19T10:59:28Z</time>
      </trkpt>
      <trkpt lat="42.9833" lon="0.31611">
        <ele>1501</ele>
        <time>2014-10-19T10:59:33Z</time>
      </trkpt>
      <trkpt lat="42.98331" lon="0.31614">
        <ele>1501</ele>
        <time>2014-10-19T11:00:00Z</time>
      </trkpt>
      <trkpt lat="42.98328" lon="0.31615">
        <ele>1501</ele>
        <time>2014-10-19T11:00:09Z</time>
      </trkpt>
      <trkpt lat="42.98327" lon="0.31617">
        <ele>1501</ele>
        <time>2014-10-19T11:00:13Z</time>
      </trkpt>
      <trkpt lat="42.98325" lon="0.31617">
        <ele>1502</ele>
        <time>2014-10-19T11:00:21Z</time>
      </trkpt>
      <trkpt lat="42.98324" lon="0.31615">
        <ele>1502</ele>
        <time>2014-10-19T11:00:24Z</time>
      </trkpt>
      <trkpt lat="42.98322" lon="0.31612">
        <ele>1502</ele>
        <time>2014-10-19T11:00:30Z</time>
      </trkpt>
      <trkpt lat="42.98322" lon="0.3161">
        <ele>1502</ele>
        <time>2014-10-19T11:00:35Z</time>
      </trkpt>
      <trkpt lat="42.9832" lon="0.31608">
        <ele>1502</ele>
        <time>2014-10-19T11:00:38Z</time>
      </trkpt>
      <trkpt lat="42.98317" lon="0.31608">
        <ele>1503</ele>
        <time>2014-10-19T11:00:48Z</time>
      </trkpt>
      <trkpt lat="42.98313" lon="0.31615">
        <ele>1504</ele>
        <time>2014-10-19T11:01:05Z</time>
      </trkpt>
      <trkpt lat="42.98311" lon="0.31616">
        <ele>1504</ele>
        <time>2014-10-19T11:01:08Z</time>
      </trkpt>
      <trkpt lat="42.98309" lon="0.31616">
        <ele>1505</ele>
        <time>2014-10-19T11:01:18Z</time>
      </trkpt>
      <trkpt lat="42.98308" lon="0.31613">
        <ele>1505</ele>
        <time>2014-10-19T11:01:23Z</time>
      </trkpt>
      <trkpt lat="42.98307" lon="0.31609">
        <ele>1505</ele>
        <time>2014-10-19T11:01:36Z</time>
      </trkpt>
      <trkpt lat="42.98304" lon="0.31608">
        <ele>1506</ele>
        <time>2014-10-19T11:01:53Z</time>
      </trkpt>
      <trkpt lat="42.98302" lon="0.31613">
        <ele>1506</ele>
        <time>2014-10-19T11:02:22Z</time>
      </trkpt>
      <trkpt lat="42.983" lon="0.31614">
        <ele>1507</ele>
        <time>2014-10-19T11:02:27Z</time>
      </trkpt>
      <trkpt lat="42.98299" lon="0.31612">
        <ele>1507</ele>
        <time>2014-10-19T11:02:33Z</time>
      </trkpt>
      <trkpt lat="42.98297" lon="0.31611">
        <ele>1508</ele>
        <time>2014-10-19T11:02:37Z</time>
      </trkpt>
      <trkpt lat="42.98296" lon="0.31609">
        <ele>1508</ele>
        <time>2014-10-19T11:02:42Z</time>
      </trkpt>
      <trkpt lat="42.98294" lon="0.31608">
        <ele>1509</ele>
        <time>2014-10-19T11:02:45Z</time>
      </trkpt>
      <trkpt lat="42.98293" lon="0.31606">
        <ele>1509</ele>
        <time>2014-10-19T11:02:50Z</time>
      </trkpt>
      <trkpt lat="42.98291" lon="0.31604">
        <ele>1510</ele>
        <time>2014-10-19T11:02:53Z</time>
      </trkpt>
      <trkpt lat="42.98291" lon="0.31601">
        <ele>1510</ele>
        <time>2014-10-19T11:02:56Z</time>
      </trkpt>
      <trkpt lat="42.9829" lon="0.31595">
        <ele>1510</ele>
        <time>2014-10-19T11:03:02Z</time>
      </trkpt>
      <trkpt lat="42.98288" lon="0.31591">
        <ele>1511</ele>
        <time>2014-10-19T11:03:15Z</time>
      </trkpt>
      <trkpt lat="42.98288" lon="0.31588">
        <ele>1512</ele>
        <time>2014-10-19T11:03:21Z</time>
      </trkpt>
      <trkpt lat="42.98287" lon="0.31585">
        <ele>1512</ele>
        <time>2014-10-19T11:03:24Z</time>
      </trkpt>
      <trkpt lat="42.98286" lon="0.31583">
        <ele>1511</ele>
        <time>2014-10-19T11:03:27Z</time>
      </trkpt>
      <trkpt lat="42.98285" lon="0.3158">
        <ele>1511</ele>
        <time>2014-10-19T11:03:31Z</time>
      </trkpt>
      <trkpt lat="42.98284" lon="0.31578">
        <ele>1512</ele>
        <time>2014-10-19T11:03:35Z</time>
      </trkpt>
      <trkpt lat="42.98282" lon="0.31575">
        <ele>1513</ele>
        <time>2014-10-19T11:03:45Z</time>
      </trkpt>
      <trkpt lat="42.9828" lon="0.31571">
        <ele>1513</ele>
        <time>2014-10-19T11:11:19Z</time>
      </trkpt>
      <trkpt lat="42.98277" lon="0.31572">
        <ele>1514</ele>
        <time>2014-10-19T11:15:50Z</time>
      </trkpt>
      <trkpt lat="42.98275" lon="0.31573">
        <ele>1515</ele>
        <time>2014-10-19T11:16:03Z</time>
      </trkpt>
      <trkpt lat="42.9827" lon="0.31577">
        <ele>1518</ele>
        <time>2014-10-19T11:16:15Z</time>
      </trkpt>
      <trkpt lat="42.98266" lon="0.3158">
        <ele>1521</ele>
        <time>2014-10-19T11:16:34Z</time>
      </trkpt>
      <trkpt lat="42.98261" lon="0.31589">
        <ele>1525</ele>
        <time>2014-10-19T11:16:49Z</time>
      </trkpt>
      <trkpt lat="42.98243" lon="0.31611">
        <ele>1536</ele>
        <time>2014-10-19T11:17:23Z</time>
      </trkpt>
      <trkpt lat="42.98231" lon="0.31624">
        <ele>1536</ele>
        <time>2014-10-19T11:17:46Z</time>
      </trkpt>
      <trkpt lat="42.98231" lon="0.31621">
        <ele>1536</ele>
        <time>2014-10-19T11:18:01Z</time>
      </trkpt>
      <trkpt lat="42.98229" lon="0.31618">
        <ele>1537</ele>
        <time>2014-10-19T11:18:04Z</time>
      </trkpt>
      <trkpt lat="42.98214" lon="0.31596">
        <ele>1540</ele>
        <time>2014-10-19T11:18:34Z</time>
      </trkpt>
      <trkpt lat="42.98213" lon="0.31592">
        <ele>1540</ele>
        <time>2014-10-19T11:18:47Z</time>
      </trkpt>
      <trkpt lat="42.98212" lon="0.31589">
        <ele>1540</ele>
        <time>2014-10-19T11:22:38Z</time>
      </trkpt>
      <trkpt lat="42.9821" lon="0.31588">
        <ele>1541</ele>
        <time>2014-10-19T11:22:41Z</time>
      </trkpt>
      <trkpt lat="42.98201" lon="0.31547">
        <ele>1545</ele>
        <time>2014-10-19T11:23:08Z</time>
      </trkpt>
      <trkpt lat="42.98197" lon="0.31545">
        <ele>1546</ele>
        <time>2014-10-19T11:23:15Z</time>
      </trkpt>
      <trkpt lat="42.98196" lon="0.31543">
        <ele>1546</ele>
        <time>2014-10-19T11:23:18Z</time>
      </trkpt>
      <trkpt lat="42.98194" lon="0.31542">
        <ele>1547</ele>
        <time>2014-10-19T11:23:21Z</time>
      </trkpt>
      <trkpt lat="42.9819" lon="0.31541">
        <ele>1547</ele>
        <time>2014-10-19T11:23:26Z</time>
      </trkpt>
      <trkpt lat="42.98188" lon="0.31538">
        <ele>1548</ele>
        <time>2014-10-19T11:23:40Z</time>
      </trkpt>
      <trkpt lat="42.98176" lon="0.31537">
        <ele>1550</ele>
        <time>2014-10-19T11:24:10Z</time>
      </trkpt>
      <trkpt lat="42.98163" lon="0.3153">
        <ele>1568</ele>
        <time>2014-10-19T11:24:27Z</time>
      </trkpt>
      <trkpt lat="42.98154" lon="0.31524">
        <ele>1569</ele>
        <time>2014-10-19T11:24:39Z</time>
      </trkpt>
      <trkpt lat="42.98153" lon="0.31518">
        <ele>1569</ele>
        <time>2014-10-19T11:24:48Z</time>
      </trkpt>
      <trkpt lat="42.98139" lon="0.31517">
        <ele>1571</ele>
        <time>2014-10-19T11:25:24Z</time>
      </trkpt>
      <trkpt lat="42.98121" lon="0.3152">
        <ele>1574</ele>
        <time>2014-10-19T11:25:51Z</time>
      </trkpt>
      <trkpt lat="42.98107" lon="0.31524">
        <ele>1576</ele>
        <time>2014-10-19T11:26:07Z</time>
      </trkpt>
      <trkpt lat="42.98105" lon="0.31523">
        <ele>1577</ele>
        <time>2014-10-19T11:26:18Z</time>
      </trkpt>
      <trkpt lat="42.9809" lon="0.31511">
        <ele>1584</ele>
        <time>2014-10-19T11:26:39Z</time>
      </trkpt>
      <trkpt lat="42.98089" lon="0.31505">
        <ele>1587</ele>
        <time>2014-10-19T11:26:45Z</time>
      </trkpt>
      <trkpt lat="42.98071" lon="0.3149">
        <ele>1594</ele>
        <time>2014-10-19T11:27:10Z</time>
      </trkpt>
      <trkpt lat="42.98058" lon="0.31488">
        <ele>1596</ele>
        <time>2014-10-19T11:27:40Z</time>
      </trkpt>
      <trkpt lat="42.98038" lon="0.31504">
        <ele>1602</ele>
        <time>2014-10-19T11:28:12Z</time>
      </trkpt>
      <trkpt lat="42.98029" lon="0.31522">
        <ele>1603</ele>
        <time>2014-10-19T11:28:36Z</time>
      </trkpt>
      <trkpt lat="42.98027" lon="0.31522">
        <ele>1603</ele>
        <time>2014-10-19T11:28:46Z</time>
      </trkpt>
      <trkpt lat="42.98025" lon="0.3152">
        <ele>1604</ele>
        <time>2014-10-19T11:28:49Z</time>
      </trkpt>
      <trkpt lat="42.98024" lon="0.31519">
        <ele>1604</ele>
        <time>2014-10-19T11:28:52Z</time>
      </trkpt>
      <trkpt lat="42.98022" lon="0.31517">
        <ele>1605</ele>
        <time>2014-10-19T11:28:55Z</time>
      </trkpt>
      <trkpt lat="42.9802" lon="0.31515">
        <ele>1605</ele>
        <time>2014-10-19T11:28:58Z</time>
      </trkpt>
      <trkpt lat="42.98011" lon="0.31503">
        <ele>1609</ele>
        <time>2014-10-19T11:29:25Z</time>
      </trkpt>
      <trkpt lat="42.97998" lon="0.31517">
        <ele>1625</ele>
        <time>2014-10-19T11:29:58Z</time>
      </trkpt>
      <trkpt lat="42.97995" lon="0.31523">
        <ele>1627</ele>
        <time>2014-10-19T11:30:06Z</time>
      </trkpt>
      <trkpt lat="42.97985" lon="0.31533">
        <ele>1630</ele>
        <time>2014-10-19T11:30:24Z</time>
      </trkpt>
      <trkpt lat="42.97977" lon="0.31544">
        <ele>1632</ele>
        <time>2014-10-19T11:30:52Z</time>
      </trkpt>
      <trkpt lat="42.97975" lon="0.31542">
        <ele>1632</ele>
        <time>2014-10-19T11:30:57Z</time>
      </trkpt>
      <trkpt lat="42.97973" lon="0.31541">
        <ele>1633</ele>
        <time>2014-10-19T11:31:10Z</time>
      </trkpt>
      <trkpt lat="42.97954" lon="0.3153">
        <ele>1637</ele>
        <time>2014-10-19T11:31:43Z</time>
      </trkpt>
      <trkpt lat="42.97953" lon="0.31529">
        <ele>1638</ele>
        <time>2014-10-19T11:31:45Z</time>
      </trkpt>
      <trkpt lat="42.9795" lon="0.31526">
        <ele>1638</ele>
        <time>2014-10-19T11:31:52Z</time>
      </trkpt>
      <trkpt lat="42.97947" lon="0.31524">
        <ele>1639</ele>
        <time>2014-10-19T11:31:56Z</time>
      </trkpt>
      <trkpt lat="42.97933" lon="0.31516">
        <ele>1643</ele>
        <time>2014-10-19T11:32:26Z</time>
      </trkpt>
      <trkpt lat="42.97932" lon="0.31516">
        <ele>1644</ele>
        <time>2014-10-19T11:32:29Z</time>
      </trkpt>
      <trkpt lat="42.9793" lon="0.31514">
        <ele>1644</ele>
        <time>2014-10-19T11:32:33Z</time>
      </trkpt>
      <trkpt lat="42.97926" lon="0.31509">
        <ele>1647</ele>
        <time>2014-10-19T11:32:43Z</time>
      </trkpt>
      <trkpt lat="42.97922" lon="0.31503">
        <ele>1649</ele>
        <time>2014-10-19T11:33:02Z</time>
      </trkpt>
      <trkpt lat="42.97913" lon="0.31473">
        <ele>1668</ele>
        <time>2014-10-19T11:33:36Z</time>
      </trkpt>
      <trkpt lat="42.97911" lon="0.31471">
        <ele>1669</ele>
        <time>2014-10-19T11:33:47Z</time>
      </trkpt>
      <trkpt lat="42.9791" lon="0.31469">
        <ele>1669</ele>
        <time>2014-10-19T11:33:49Z</time>
      </trkpt>
      <trkpt lat="42.9791" lon="0.31467">
        <ele>1670</ele>
        <time>2014-10-19T11:33:51Z</time>
      </trkpt>
      <trkpt lat="42.97906" lon="0.31454">
        <ele>1671</ele>
        <time>2014-10-19T11:34:08Z</time>
      </trkpt>
      <trkpt lat="42.97904" lon="0.31453">
        <ele>1671</ele>
        <time>2014-10-19T11:34:12Z</time>
      </trkpt>
      <trkpt lat="42.97902" lon="0.31453">
        <ele>1672</ele>
        <time>2014-10-19T11:34:15Z</time>
      </trkpt>
      <trkpt lat="42.97898" lon="0.31452">
        <ele>1673</ele>
        <time>2014-10-19T11:34:21Z</time>
      </trkpt>
      <trkpt lat="42.97896" lon="0.31449">
        <ele>1673</ele>
        <time>2014-10-19T11:34:29Z</time>
      </trkpt>
      <trkpt lat="42.97895" lon="0.31449">
        <ele>1673</ele>
        <time>2014-10-19T11:34:33Z</time>
      </trkpt>
      <trkpt lat="42.97894" lon="0.31446">
        <ele>1673</ele>
        <time>2014-10-19T11:34:42Z</time>
      </trkpt>
      <trkpt lat="42.97894" lon="0.31445">
        <ele>1673</ele>
        <time>2014-10-19T11:34:50Z</time>
      </trkpt>
      <trkpt lat="42.97892" lon="0.31444">
        <ele>1674</ele>
        <time>2014-10-19T11:35:04Z</time>
      </trkpt>
      <trkpt lat="42.97888" lon="0.31444">
        <ele>1675</ele>
        <time>2014-10-19T11:35:16Z</time>
      </trkpt>
      <trkpt lat="42.97887" lon="0.31443">
        <ele>1675</ele>
        <time>2014-10-19T11:35:20Z</time>
      </trkpt>
      <trkpt lat="42.97886" lon="0.31442">
        <ele>1676</ele>
        <time>2014-10-19T11:35:25Z</time>
      </trkpt>
      <trkpt lat="42.97885" lon="0.31441">
        <ele>1676</ele>
        <time>2014-10-19T11:35:42Z</time>
      </trkpt>
      <trkpt lat="42.97884" lon="0.31439">
        <ele>1677</ele>
        <time>2014-10-19T11:35:48Z</time>
      </trkpt>
      <trkpt lat="42.97882" lon="0.31436">
        <ele>1677</ele>
        <time>2014-10-19T11:35:51Z</time>
      </trkpt>
      <trkpt lat="42.97882" lon="0.31435">
        <ele>1677</ele>
        <time>2014-10-19T11:35:54Z</time>
      </trkpt>
      <trkpt lat="42.97881" lon="0.31432">
        <ele>1677</ele>
        <time>2014-10-19T11:35:59Z</time>
      </trkpt>
      <trkpt lat="42.97879" lon="0.31429">
        <ele>1678</ele>
        <time>2014-10-19T11:36:02Z</time>
      </trkpt>
      <trkpt lat="42.97877" lon="0.31425">
        <ele>1679</ele>
        <time>2014-10-19T11:36:06Z</time>
      </trkpt>
      <trkpt lat="42.97875" lon="0.31418">
        <ele>1680</ele>
        <time>2014-10-19T11:36:16Z</time>
      </trkpt>
      <trkpt lat="42.97875" lon="0.31411">
        <ele>1684</ele>
        <time>2014-10-19T11:36:24Z</time>
      </trkpt>
      <trkpt lat="42.97875" lon="0.31408">
        <ele>1684</ele>
        <time>2014-10-19T11:36:26Z</time>
      </trkpt>
      <trkpt lat="42.97874" lon="0.31406">
        <ele>1684</ele>
        <time>2014-10-19T11:36:29Z</time>
      </trkpt>
      <trkpt lat="42.97873" lon="0.31393">
        <ele>1685</ele>
        <time>2014-10-19T11:36:55Z</time>
      </trkpt>
      <trkpt lat="42.97872" lon="0.31394">
        <ele>1685</ele>
        <time>2014-10-19T11:37:14Z</time>
      </trkpt>
      <trkpt lat="42.97864" lon="0.31395">
        <ele>1688</ele>
        <time>2014-10-19T11:37:49Z</time>
      </trkpt>
      <trkpt lat="42.97856" lon="0.31393">
        <ele>1691</ele>
        <time>2014-10-19T11:38:13Z</time>
      </trkpt>
      <trkpt lat="42.97853" lon="0.31389">
        <ele>1692</ele>
        <time>2014-10-19T11:38:23Z</time>
      </trkpt>
      <trkpt lat="42.97848" lon="0.31387">
        <ele>1693</ele>
        <time>2014-10-19T11:38:30Z</time>
      </trkpt>
      <trkpt lat="42.97849" lon="0.31385">
        <ele>1693</ele>
        <time>2014-10-19T11:38:39Z</time>
      </trkpt>
      <trkpt lat="42.97848" lon="0.31382">
        <ele>1693</ele>
        <time>2014-10-19T11:38:43Z</time>
      </trkpt>
      <trkpt lat="42.97849" lon="0.31381">
        <ele>1693</ele>
        <time>2014-10-19T11:38:51Z</time>
      </trkpt>
      <trkpt lat="42.9785" lon="0.31377">
        <ele>1693</ele>
        <time>2014-10-19T11:39:39Z</time>
      </trkpt>
      <trkpt lat="42.97849" lon="0.31373">
        <ele>1693</ele>
        <time>2014-10-19T11:40:15Z</time>
      </trkpt>
      <trkpt lat="42.97849" lon="0.31371">
        <ele>1694</ele>
        <time>2014-10-19T11:42:58Z</time>
      </trkpt>
      <trkpt lat="42.97849" lon="0.31369">
        <ele>1694</ele>
        <time>2014-10-19T11:43:04Z</time>
      </trkpt>
      <trkpt lat="42.9785" lon="0.31365">
        <ele>1694</ele>
        <time>2014-10-19T11:43:19Z</time>
      </trkpt>
      <trkpt lat="42.97853" lon="0.31363">
        <ele>1694</ele>
        <time>2014-10-19T11:43:52Z</time>
      </trkpt>
      <trkpt lat="42.97855" lon="0.31361">
        <ele>1694</ele>
        <time>2014-10-19T11:44:09Z</time>
      </trkpt>
      <trkpt lat="42.97854" lon="0.31359">
        <ele>1694</ele>
        <time>2014-10-19T11:51:08Z</time>
      </trkpt>
      <trkpt lat="42.97854" lon="0.31357">
        <ele>1695</ele>
        <time>2014-10-19T11:51:17Z</time>
      </trkpt>
      <trkpt lat="42.97852" lon="0.31355">
        <ele>1696</ele>
        <time>2014-10-19T11:51:26Z</time>
      </trkpt>
      <trkpt lat="42.9785" lon="0.31347">
        <ele>1699</ele>
        <time>2014-10-19T11:52:15Z</time>
      </trkpt>
      <trkpt lat="42.97851" lon="0.31344">
        <ele>1700</ele>
        <time>2014-10-19T11:52:19Z</time>
      </trkpt>
      <trkpt lat="42.9785" lon="0.31342">
        <ele>1700</ele>
        <time>2014-10-19T11:52:21Z</time>
      </trkpt>
      <trkpt lat="42.97849" lon="0.31339">
        <ele>1702</ele>
        <time>2014-10-19T11:52:33Z</time>
      </trkpt>
      <trkpt lat="42.97849" lon="0.31335">
        <ele>1703</ele>
        <time>2014-10-19T11:55:33Z</time>
      </trkpt>
      <trkpt lat="42.97847" lon="0.31332">
        <ele>1706</ele>
        <time>2014-10-19T11:55:36Z</time>
      </trkpt>
      <trkpt lat="42.97844" lon="0.31328">
        <ele>1708</ele>
        <time>2014-10-19T11:55:40Z</time>
      </trkpt>
      <trkpt lat="42.97844" lon="0.31327">
        <ele>1708</ele>
        <time>2014-10-19T11:55:42Z</time>
      </trkpt>
      <trkpt lat="42.97835" lon="0.31301">
        <ele>1702</ele>
        <time>2014-10-19T11:56:03Z</time>
      </trkpt>
      <trkpt lat="42.97833" lon="0.31303">
        <ele>1726</ele>
        <time>2014-10-19T11:56:24Z</time>
      </trkpt>
      <trkpt lat="42.97831" lon="0.31304">
        <ele>1726</ele>
        <time>2014-10-19T11:56:26Z</time>
      </trkpt>
      <trkpt lat="42.97829" lon="0.31305">
        <ele>1726</ele>
        <time>2014-10-19T11:56:28Z</time>
      </trkpt>
      <trkpt lat="42.97829" lon="0.31307">
        <ele>1725</ele>
        <time>2014-10-19T11:56:31Z</time>
      </trkpt>
      <trkpt lat="42.97827" lon="0.3131">
        <ele>1725</ele>
        <time>2014-10-19T11:56:37Z</time>
      </trkpt>
      <trkpt lat="42.97825" lon="0.3131">
        <ele>1726</ele>
        <time>2014-10-19T11:56:39Z</time>
      </trkpt>
      <trkpt lat="42.97824" lon="0.31312">
        <ele>1725</ele>
        <time>2014-10-19T11:56:42Z</time>
      </trkpt>
      <trkpt lat="42.97824" lon="0.31315">
        <ele>1725</ele>
        <time>2014-10-19T11:56:45Z</time>
      </trkpt>
      <trkpt lat="42.97819" lon="0.31326">
        <ele>1724</ele>
        <time>2014-10-19T11:57:05Z</time>
      </trkpt>
      <trkpt lat="42.97809" lon="0.31335">
        <ele>1726</ele>
        <time>2014-10-19T11:57:21Z</time>
      </trkpt>
      <trkpt lat="42.97802" lon="0.31334">
        <ele>1728</ele>
        <time>2014-10-19T11:57:30Z</time>
      </trkpt>
      <trkpt lat="42.97801" lon="0.31336">
        <ele>1728</ele>
        <time>2014-10-19T11:57:33Z</time>
      </trkpt>
      <trkpt lat="42.97798" lon="0.31334">
        <ele>1729</ele>
        <time>2014-10-19T11:57:43Z</time>
      </trkpt>
      <trkpt lat="42.97797" lon="0.31336">
        <ele>1729</ele>
        <time>2014-10-19T11:57:49Z</time>
      </trkpt>
      <trkpt lat="42.97796" lon="0.31339">
        <ele>1729</ele>
        <time>2014-10-19T11:57:56Z</time>
      </trkpt>
      <trkpt lat="42.97798" lon="0.31346">
        <ele>1729</ele>
        <time>2014-10-19T11:58:06Z</time>
      </trkpt>
      <trkpt lat="42.97792" lon="0.31356">
        <ele>1730</ele>
        <time>2014-10-19T11:58:25Z</time>
      </trkpt>
      <trkpt lat="42.97792" lon="0.31358">
        <ele>1730</ele>
        <time>2014-10-19T11:58:30Z</time>
      </trkpt>
      <trkpt lat="42.9779" lon="0.3136">
        <ele>1730</ele>
        <time>2014-10-19T11:58:52Z</time>
      </trkpt>
      <trkpt lat="42.97786" lon="0.31362">
        <ele>1731</ele>
        <time>2014-10-19T11:58:59Z</time>
      </trkpt>
      <trkpt lat="42.97785" lon="0.31364">
        <ele>1731</ele>
        <time>2014-10-19T11:59:01Z</time>
      </trkpt>
      <trkpt lat="42.97782" lon="0.31369">
        <ele>1731</ele>
        <time>2014-10-19T11:59:17Z</time>
      </trkpt>
      <trkpt lat="42.97777" lon="0.31376">
        <ele>1732</ele>
        <time>2014-10-19T11:59:36Z</time>
      </trkpt>
      <trkpt lat="42.97771" lon="0.31383">
        <ele>1734</ele>
        <time>2014-10-19T12:00:02Z</time>
      </trkpt>
      <trkpt lat="42.97765" lon="0.31384">
        <ele>1735</ele>
        <time>2014-10-19T12:00:23Z</time>
      </trkpt>
      <trkpt lat="42.97764" lon="0.31386">
        <ele>1735</ele>
        <time>2014-10-19T12:00:25Z</time>
      </trkpt>
      <trkpt lat="42.97763" lon="0.31389">
        <ele>1736</ele>
        <time>2014-10-19T12:00:28Z</time>
      </trkpt>
      <trkpt lat="42.97756" lon="0.31411">
        <ele>1744</ele>
        <time>2014-10-19T12:00:53Z</time>
      </trkpt>
      <trkpt lat="42.97753" lon="0.31411">
        <ele>1745</ele>
        <time>2014-10-19T12:00:56Z</time>
      </trkpt>
      <trkpt lat="42.97753" lon="0.31409">
        <ele>1744</ele>
        <time>2014-10-19T12:00:59Z</time>
      </trkpt>
      <trkpt lat="42.97745" lon="0.31401">
        <ele>1756</ele>
        <time>2014-10-19T12:01:18Z</time>
      </trkpt>
      <trkpt lat="42.97735" lon="0.31395">
        <ele>1758</ele>
        <time>2014-10-19T12:01:37Z</time>
      </trkpt>
      <trkpt lat="42.97729" lon="0.31416">
        <ele>1758</ele>
        <time>2014-10-19T12:02:09Z</time>
      </trkpt>
      <trkpt lat="42.97727" lon="0.31427">
        <ele>1757</ele>
        <time>2014-10-19T12:02:25Z</time>
      </trkpt>
      <trkpt lat="42.97726" lon="0.31427">
        <ele>1758</ele>
        <time>2014-10-19T12:02:29Z</time>
      </trkpt>
      <trkpt lat="42.97725" lon="0.31425">
        <ele>1758</ele>
        <time>2014-10-19T12:02:34Z</time>
      </trkpt>
      <trkpt lat="42.97724" lon="0.31423">
        <ele>1758</ele>
        <time>2014-10-19T12:02:37Z</time>
      </trkpt>
      <trkpt lat="42.97722" lon="0.31421">
        <ele>1758</ele>
        <time>2014-10-19T12:02:40Z</time>
      </trkpt>
      <trkpt lat="42.97721" lon="0.3142">
        <ele>1758</ele>
        <time>2014-10-19T12:02:42Z</time>
      </trkpt>
      <trkpt lat="42.97719" lon="0.31417">
        <ele>1759</ele>
        <time>2014-10-19T12:02:46Z</time>
      </trkpt>
      <trkpt lat="42.97719" lon="0.31415">
        <ele>1761</ele>
        <time>2014-10-19T12:02:52Z</time>
      </trkpt>
      <trkpt lat="42.97717" lon="0.31414">
        <ele>1761</ele>
        <time>2014-10-19T12:02:56Z</time>
      </trkpt>
      <trkpt lat="42.97716" lon="0.31413">
        <ele>1762</ele>
        <time>2014-10-19T12:02:59Z</time>
      </trkpt>
      <trkpt lat="42.97715" lon="0.31414">
        <ele>1762</ele>
        <time>2014-10-19T12:03:02Z</time>
      </trkpt>
      <trkpt lat="42.97711" lon="0.3142">
        <ele>1761</ele>
        <time>2014-10-19T12:03:14Z</time>
      </trkpt>
      <trkpt lat="42.97708" lon="0.31429">
        <ele>1761</ele>
        <time>2014-10-19T12:03:25Z</time>
      </trkpt>
      <trkpt lat="42.97707" lon="0.31432">
        <ele>1761</ele>
        <time>2014-10-19T12:03:31Z</time>
      </trkpt>
      <trkpt lat="42.97704" lon="0.31434">
        <ele>1762</ele>
        <time>2014-10-19T12:03:36Z</time>
      </trkpt>
      <trkpt lat="42.97703" lon="0.31437">
        <ele>1762</ele>
        <time>2014-10-19T12:03:39Z</time>
      </trkpt>
      <trkpt lat="42.97701" lon="0.31438">
        <ele>1762</ele>
        <time>2014-10-19T12:03:42Z</time>
      </trkpt>
      <trkpt lat="42.97697" lon="0.31439">
        <ele>1763</ele>
        <time>2014-10-19T12:03:48Z</time>
      </trkpt>
      <trkpt lat="42.97686" lon="0.3144">
        <ele>1764</ele>
        <time>2014-10-19T12:04:05Z</time>
      </trkpt>
      <trkpt lat="42.97682" lon="0.31437">
        <ele>1765</ele>
        <time>2014-10-19T12:04:26Z</time>
      </trkpt>
      <trkpt lat="42.97677" lon="0.31431">
        <ele>1768</ele>
        <time>2014-10-19T12:04:40Z</time>
      </trkpt>
      <trkpt lat="42.97677" lon="0.31429">
        <ele>1768</ele>
        <time>2014-10-19T12:11:30Z</time>
      </trkpt>
      <trkpt lat="42.97676" lon="0.31424">
        <ele>1770</ele>
        <time>2014-10-19T12:12:01Z</time>
      </trkpt>
      <trkpt lat="42.97673" lon="0.31422">
        <ele>1771</ele>
        <time>2014-10-19T12:12:26Z</time>
      </trkpt>
      <trkpt lat="42.97671" lon="0.31421">
        <ele>1772</ele>
        <time>2014-10-19T12:12:28Z</time>
      </trkpt>
      <trkpt lat="42.9766" lon="0.31401">
        <ele>1780</ele>
        <time>2014-10-19T12:12:59Z</time>
      </trkpt>
      <trkpt lat="42.97658" lon="0.31385">
        <ele>1782</ele>
        <time>2014-10-19T12:13:20Z</time>
      </trkpt>
      <trkpt lat="42.97656" lon="0.31385">
        <ele>1782</ele>
        <time>2014-10-19T12:13:23Z</time>
      </trkpt>
      <trkpt lat="42.97654" lon="0.31385">
        <ele>1782</ele>
        <time>2014-10-19T12:13:26Z</time>
      </trkpt>
      <trkpt lat="42.97652" lon="0.31384">
        <ele>1782</ele>
        <time>2014-10-19T12:13:29Z</time>
      </trkpt>
      <trkpt lat="42.97647" lon="0.31385">
        <ele>1782</ele>
        <time>2014-10-19T12:13:43Z</time>
      </trkpt>
      <trkpt lat="42.97646" lon="0.31383">
        <ele>1783</ele>
        <time>2014-10-19T12:13:48Z</time>
      </trkpt>
      <trkpt lat="42.97638" lon="0.31363">
        <ele>1785</ele>
        <time>2014-10-19T12:14:25Z</time>
      </trkpt>
      <trkpt lat="42.97638" lon="0.31352">
        <ele>1787</ele>
        <time>2014-10-19T12:14:48Z</time>
      </trkpt>
      <trkpt lat="42.97637" lon="0.31351">
        <ele>1787</ele>
        <time>2014-10-19T12:14:51Z</time>
      </trkpt>
      <trkpt lat="42.97637" lon="0.31349">
        <ele>1787</ele>
        <time>2014-10-19T12:14:55Z</time>
      </trkpt>
      <trkpt lat="42.97635" lon="0.31339">
        <ele>1788</ele>
        <time>2014-10-19T12:15:12Z</time>
      </trkpt>
      <trkpt lat="42.97636" lon="0.31337">
        <ele>1788</ele>
        <time>2014-10-19T12:15:16Z</time>
      </trkpt>
      <trkpt lat="42.97636" lon="0.31334">
        <ele>1788</ele>
        <time>2014-10-19T12:15:25Z</time>
      </trkpt>
      <trkpt lat="42.97631" lon="0.31317">
        <ele>1802</ele>
        <time>2014-10-19T12:15:56Z</time>
      </trkpt>
      <trkpt lat="42.9763" lon="0.31314">
        <ele>1803</ele>
        <time>2014-10-19T12:15:59Z</time>
      </trkpt>
      <trkpt lat="42.97624" lon="0.31294">
        <ele>1805</ele>
        <time>2014-10-19T12:16:30Z</time>
      </trkpt>
      <trkpt lat="42.97621" lon="0.31278">
        <ele>1808</ele>
        <time>2014-10-19T12:17:01Z</time>
      </trkpt>
      <trkpt lat="42.97621" lon="0.31274">
        <ele>1808</ele>
        <time>2014-10-19T12:17:10Z</time>
      </trkpt>
      <trkpt lat="42.9762" lon="0.31272">
        <ele>1809</ele>
        <time>2014-10-19T12:17:18Z</time>
      </trkpt>
      <trkpt lat="42.97618" lon="0.31272">
        <ele>1809</ele>
        <time>2014-10-19T12:17:26Z</time>
      </trkpt>
      <trkpt lat="42.97617" lon="0.3127">
        <ele>1810</ele>
        <time>2014-10-19T12:17:32Z</time>
      </trkpt>
      <trkpt lat="42.97609" lon="0.31241">
        <ele>1819</ele>
        <time>2014-10-19T12:18:02Z</time>
      </trkpt>
      <trkpt lat="42.97608" lon="0.31239">
        <ele>1819</ele>
        <time>2014-10-19T12:18:07Z</time>
      </trkpt>
      <trkpt lat="42.97603" lon="0.31232">
        <ele>1820</ele>
        <time>2014-10-19T12:19:02Z</time>
      </trkpt>
      <trkpt lat="42.97601" lon="0.31233">
        <ele>1820</ele>
        <time>2014-10-19T12:20:18Z</time>
      </trkpt>
      <trkpt lat="42.976" lon="0.31235">
        <ele>1821</ele>
        <time>2014-10-19T12:21:27Z</time>
      </trkpt>
      <trkpt lat="42.97601" lon="0.31239">
        <ele>1822</ele>
        <time>2014-10-19T12:21:56Z</time>
      </trkpt>
      <trkpt lat="42.97596" lon="0.31243">
        <ele>1825</ele>
        <time>2014-10-19T12:23:11Z</time>
      </trkpt>
      <trkpt lat="42.97593" lon="0.31239">
        <ele>1826</ele>
        <time>2014-10-19T12:24:02Z</time>
      </trkpt>
      <trkpt lat="42.97589" lon="0.31239">
        <ele>1827</ele>
        <time>2014-10-19T12:26:19Z</time>
      </trkpt>
      <trkpt lat="42.97586" lon="0.31237">
        <ele>1827</ele>
        <time>2014-10-19T12:26:30Z</time>
      </trkpt>
      <trkpt lat="42.97585" lon="0.31237">
        <ele>1827</ele>
        <time>2014-10-19T12:26:33Z</time>
      </trkpt>
      <trkpt lat="42.97582" lon="0.31237">
        <ele>1840</ele>
        <time>2014-10-19T12:26:46Z</time>
      </trkpt>
      <trkpt lat="42.97578" lon="0.31236">
        <ele>1841</ele>
        <time>2014-10-19T12:26:53Z</time>
      </trkpt>
      <trkpt lat="42.97576" lon="0.31241">
        <ele>1840</ele>
        <time>2014-10-19T12:27:03Z</time>
      </trkpt>
      <trkpt lat="42.97575" lon="0.31242">
        <ele>1840</ele>
        <time>2014-10-19T12:27:14Z</time>
      </trkpt>
      <trkpt lat="42.9757" lon="0.3124">
        <ele>1841</ele>
        <time>2014-10-19T12:27:21Z</time>
      </trkpt>
      <trkpt lat="42.97562" lon="0.31242">
        <ele>1842</ele>
        <time>2014-10-19T12:27:31Z</time>
      </trkpt>
      <trkpt lat="42.97562" lon="0.3124">
        <ele>1843</ele>
        <time>2014-10-19T12:27:38Z</time>
      </trkpt>
      <trkpt lat="42.97562" lon="0.31235">
        <ele>1843</ele>
        <time>2014-10-19T12:27:57Z</time>
      </trkpt>
      <trkpt lat="42.97558" lon="0.31234">
        <ele>1843</ele>
        <time>2014-10-19T12:28:11Z</time>
      </trkpt>
      <trkpt lat="42.97556" lon="0.3123">
        <ele>1844</ele>
        <time>2014-10-19T12:28:15Z</time>
      </trkpt>
      <trkpt lat="42.97554" lon="0.31229">
        <ele>1844</ele>
        <time>2014-10-19T12:28:17Z</time>
      </trkpt>
      <trkpt lat="42.9755" lon="0.31224">
        <ele>1845</ele>
        <time>2014-10-19T12:28:25Z</time>
      </trkpt>
      <trkpt lat="42.97538" lon="0.31218">
        <ele>1847</ele>
        <time>2014-10-19T12:28:41Z</time>
      </trkpt>
      <trkpt lat="42.9754" lon="0.31217">
        <ele>1847</ele>
        <time>2014-10-19T12:29:31Z</time>
      </trkpt>
      <trkpt lat="42.97547" lon="0.31219">
        <ele>1846</ele>
        <time>2014-10-19T12:29:43Z</time>
      </trkpt>
      <trkpt lat="42.97548" lon="0.31224">
        <ele>1845</ele>
        <time>2014-10-19T12:29:49Z</time>
      </trkpt>
      <trkpt lat="42.97549" lon="0.31226">
        <ele>1845</ele>
        <time>2014-10-19T12:29:51Z</time>
      </trkpt>
      <trkpt lat="42.97554" lon="0.31232">
        <ele>1844</ele>
        <time>2014-10-19T12:30:00Z</time>
      </trkpt>
      <trkpt lat="42.97552" lon="0.31229">
        <ele>1845</ele>
        <time>2014-10-19T12:31:11Z</time>
      </trkpt>
      <trkpt lat="42.97548" lon="0.31223">
        <ele>1845</ele>
        <time>2014-10-19T12:31:16Z</time>
      </trkpt>
      <trkpt lat="42.97547" lon="0.31219">
        <ele>1846</ele>
        <time>2014-10-19T12:31:20Z</time>
      </trkpt>
      <trkpt lat="42.97541" lon="0.31215">
        <ele>1846</ele>
        <time>2014-10-19T12:31:26Z</time>
      </trkpt>
      <trkpt lat="42.97539" lon="0.31215">
        <ele>1847</ele>
        <time>2014-10-19T12:31:28Z</time>
      </trkpt>
      <trkpt lat="42.97534" lon="0.31214">
        <ele>1847</ele>
        <time>2014-10-19T12:31:34Z</time>
      </trkpt>
      <trkpt lat="42.97533" lon="0.31213">
        <ele>1848</ele>
        <time>2014-10-19T12:31:44Z</time>
      </trkpt>
      <trkpt lat="42.97532" lon="0.31211">
        <ele>1848</ele>
        <time>2014-10-19T12:34:22Z</time>
      </trkpt>
      <trkpt lat="42.97531" lon="0.31206">
        <ele>1848</ele>
        <time>2014-10-19T12:34:31Z</time>
      </trkpt>
      <trkpt lat="42.97532" lon="0.31204">
        <ele>1849</ele>
        <time>2014-10-19T12:34:33Z</time>
      </trkpt>
      <trkpt lat="42.97531" lon="0.31199">
        <ele>1849</ele>
        <time>2014-10-19T12:34:36Z</time>
      </trkpt>
      <trkpt lat="42.97521" lon="0.31158">
        <ele>1856</ele>
        <time>2014-10-19T12:35:06Z</time>
      </trkpt>
      <trkpt lat="42.97519" lon="0.31152">
        <ele>1856</ele>
        <time>2014-10-19T12:35:16Z</time>
      </trkpt>
      <trkpt lat="42.97515" lon="0.31137">
        <ele>1854</ele>
        <time>2014-10-19T12:35:34Z</time>
      </trkpt>
      <trkpt lat="42.97516" lon="0.31134">
        <ele>1853</ele>
        <time>2014-10-19T12:35:38Z</time>
      </trkpt>
      <trkpt lat="42.97515" lon="0.31126">
        <ele>1853</ele>
        <time>2014-10-19T12:35:46Z</time>
      </trkpt>
      <trkpt lat="42.97515" lon="0.31124">
        <ele>1853</ele>
        <time>2014-10-19T12:35:48Z</time>
      </trkpt>
      <trkpt lat="42.97511" lon="0.31104">
        <ele>1855</ele>
        <time>2014-10-19T12:36:18Z</time>
      </trkpt>
      <trkpt lat="42.97511" lon="0.31093">
        <ele>1858</ele>
        <time>2014-10-19T12:36:38Z</time>
      </trkpt>
      <trkpt lat="42.97508" lon="0.31085">
        <ele>1860</ele>
        <time>2014-10-19T12:36:48Z</time>
      </trkpt>
      <trkpt lat="42.97508" lon="0.31051">
        <ele>1849</ele>
        <time>2014-10-19T12:37:18Z</time>
      </trkpt>
      <trkpt lat="42.97507" lon="0.31016">
        <ele>1849</ele>
        <time>2014-10-19T12:37:50Z</time>
      </trkpt>
      <trkpt lat="42.97506" lon="0.31014">
        <ele>1849</ele>
        <time>2014-10-19T12:37:52Z</time>
      </trkpt>
      <trkpt lat="42.97519" lon="0.30985">
        <ele>1842</ele>
        <time>2014-10-19T12:38:24Z</time>
      </trkpt>
      <trkpt lat="42.9752" lon="0.30982">
        <ele>1842</ele>
        <time>2014-10-19T12:38:30Z</time>
      </trkpt>
      <trkpt lat="42.97532" lon="0.30963">
        <ele>1838</ele>
        <time>2014-10-19T12:39:09Z</time>
      </trkpt>
      <trkpt lat="42.97547" lon="0.30931">
        <ele>1836</ele>
        <time>2014-10-19T12:39:40Z</time>
      </trkpt>
      <trkpt lat="42.97562" lon="0.30894">
        <ele>1831</ele>
        <time>2014-10-19T12:40:12Z</time>
      </trkpt>
      <trkpt lat="42.97572" lon="0.30865">
        <ele>1833</ele>
        <time>2014-10-19T12:40:43Z</time>
      </trkpt>
      <trkpt lat="42.97573" lon="0.30863">
        <ele>1834</ele>
        <time>2014-10-19T12:40:45Z</time>
      </trkpt>
      <trkpt lat="42.97586" lon="0.30842">
        <ele>1842</ele>
        <time>2014-10-19T12:41:19Z</time>
      </trkpt>
      <trkpt lat="42.97598" lon="0.30826">
        <ele>1845</ele>
        <time>2014-10-19T12:41:50Z</time>
      </trkpt>
      <trkpt lat="42.97611" lon="0.30806">
        <ele>1844</ele>
        <time>2014-10-19T12:42:23Z</time>
      </trkpt>
      <trkpt lat="42.9762" lon="0.30794">
        <ele>1844</ele>
        <time>2014-10-19T12:42:54Z</time>
      </trkpt>
      <trkpt lat="42.9763" lon="0.30769">
        <ele>1846</ele>
        <time>2014-10-19T12:43:24Z</time>
      </trkpt>
      <trkpt lat="42.97642" lon="0.30751">
        <ele>1850</ele>
        <time>2014-10-19T12:43:57Z</time>
      </trkpt>
      <trkpt lat="42.97646" lon="0.30748">
        <ele>1853</ele>
        <time>2014-10-19T12:44:05Z</time>
      </trkpt>
      <trkpt lat="42.97651" lon="0.30737">
        <ele>1853</ele>
        <time>2014-10-19T12:44:37Z</time>
      </trkpt>
      <trkpt lat="42.9766" lon="0.30709">
        <ele>1854</ele>
        <time>2014-10-19T12:45:07Z</time>
      </trkpt>
      <trkpt lat="42.97666" lon="0.3069">
        <ele>1859</ele>
        <time>2014-10-19T12:45:38Z</time>
      </trkpt>
      <trkpt lat="42.97667" lon="0.30687">
        <ele>1870</ele>
        <time>2014-10-19T12:45:41Z</time>
      </trkpt>
      <trkpt lat="42.97669" lon="0.30682">
        <ele>1871</ele>
        <time>2014-10-19T12:45:52Z</time>
      </trkpt>
      <trkpt lat="42.97671" lon="0.30681">
        <ele>1871</ele>
        <time>2014-10-19T12:45:58Z</time>
      </trkpt>
      <trkpt lat="42.9768" lon="0.30661">
        <ele>1877</ele>
        <time>2014-10-19T12:46:29Z</time>
      </trkpt>
      <trkpt lat="42.97681" lon="0.30659">
        <ele>1877</ele>
        <time>2014-10-19T12:46:31Z</time>
      </trkpt>
      <trkpt lat="42.97682" lon="0.30658">
        <ele>1877</ele>
        <time>2014-10-19T12:46:33Z</time>
      </trkpt>
      <trkpt lat="42.97683" lon="0.30656">
        <ele>1877</ele>
        <time>2014-10-19T12:46:35Z</time>
      </trkpt>
      <trkpt lat="42.97685" lon="0.30654">
        <ele>1877</ele>
        <time>2014-10-19T12:46:39Z</time>
      </trkpt>
      <trkpt lat="42.97691" lon="0.30641">
        <ele>1878</ele>
        <time>2014-10-19T12:47:08Z</time>
      </trkpt>
      <trkpt lat="42.97691" lon="0.30638">
        <ele>1878</ele>
        <time>2014-10-19T12:47:11Z</time>
      </trkpt>
      <trkpt lat="42.97695" lon="0.30628">
        <ele>1878</ele>
        <time>2014-10-19T12:47:24Z</time>
      </trkpt>
      <trkpt lat="42.97696" lon="0.30624">
        <ele>1878</ele>
        <time>2014-10-19T12:47:28Z</time>
      </trkpt>
      <trkpt lat="42.97699" lon="0.30619">
        <ele>1878</ele>
        <time>2014-10-19T12:47:36Z</time>
      </trkpt>
      <trkpt lat="42.97705" lon="0.30602">
        <ele>1879</ele>
        <time>2014-10-19T12:48:08Z</time>
      </trkpt>
      <trkpt lat="42.97707" lon="0.30601">
        <ele>1879</ele>
        <time>2014-10-19T12:48:12Z</time>
      </trkpt>
      <trkpt lat="42.97707" lon="0.30597">
        <ele>1879</ele>
        <time>2014-10-19T12:49:13Z</time>
      </trkpt>
      <trkpt lat="42.97708" lon="0.30596">
        <ele>1879</ele>
        <time>2014-10-19T12:51:14Z</time>
      </trkpt>
      <trkpt lat="42.97709" lon="0.30596">
        <ele>1879</ele>
        <time>2014-10-19T12:54:16Z</time>
      </trkpt>
      <trkpt lat="42.97709" lon="0.30594">
        <ele>1879</ele>
        <time>2014-10-19T13:36:40Z</time>
      </trkpt>
      <trkpt lat="42.9771" lon="0.30567">
        <ele>1881</ele>
        <time>2014-10-19T13:37:11Z</time>
      </trkpt>
      <trkpt lat="42.9771" lon="0.30558">
        <ele>1881</ele>
        <time>2014-10-19T13:37:16Z</time>
      </trkpt>
      <trkpt lat="42.9771" lon="0.30556">
        <ele>1880</ele>
        <time>2014-10-19T13:37:18Z</time>
      </trkpt>
      <trkpt lat="42.9771" lon="0.3054">
        <ele>1880</ele>
        <time>2014-10-19T13:37:48Z</time>
      </trkpt>
      <trkpt lat="42.97712" lon="0.30495">
        <ele>1880</ele>
        <time>2014-10-19T13:38:18Z</time>
      </trkpt>
      <trkpt lat="42.97716" lon="0.30461">
        <ele>1880</ele>
        <time>2014-10-19T13:38:50Z</time>
      </trkpt>
      <trkpt lat="42.97719" lon="0.30435">
        <ele>1880</ele>
        <time>2014-10-19T13:39:07Z</time>
      </trkpt>
      <trkpt lat="42.97718" lon="0.30432">
        <ele>1880</ele>
        <time>2014-10-19T13:39:10Z</time>
      </trkpt>
      <trkpt lat="42.97718" lon="0.30428">
        <ele>1880</ele>
        <time>2014-10-19T13:39:14Z</time>
      </trkpt>
      <trkpt lat="42.97717" lon="0.30425">
        <ele>1880</ele>
        <time>2014-10-19T13:39:17Z</time>
      </trkpt>
      <trkpt lat="42.97717" lon="0.30422">
        <ele>1880</ele>
        <time>2014-10-19T13:39:20Z</time>
      </trkpt>
      <trkpt lat="42.97719" lon="0.30407">
        <ele>1882</ele>
        <time>2014-10-19T13:39:42Z</time>
      </trkpt>
      <trkpt lat="42.97731" lon="0.30377">
        <ele>1884</ele>
        <time>2014-10-19T13:40:11Z</time>
      </trkpt>
      <trkpt lat="42.97733" lon="0.30376">
        <ele>1884</ele>
        <time>2014-10-19T13:40:14Z</time>
      </trkpt>
      <trkpt lat="42.97738" lon="0.30372">
        <ele>1884</ele>
        <time>2014-10-19T13:40:21Z</time>
      </trkpt>
      <trkpt lat="42.97743" lon="0.30358">
        <ele>1885</ele>
        <time>2014-10-19T13:40:38Z</time>
      </trkpt>
      <trkpt lat="42.97747" lon="0.30326">
        <ele>1887</ele>
        <time>2014-10-19T13:41:11Z</time>
      </trkpt>
      <trkpt lat="42.97742" lon="0.30299">
        <ele>1882</ele>
        <time>2014-10-19T13:41:33Z</time>
      </trkpt>
      <trkpt lat="42.97752" lon="0.3029">
        <ele>1871</ele>
        <time>2014-10-19T13:41:53Z</time>
      </trkpt>
      <trkpt lat="42.97753" lon="0.30289">
        <ele>1871</ele>
        <time>2014-10-19T13:41:55Z</time>
      </trkpt>
      <trkpt lat="42.97755" lon="0.30286">
        <ele>1871</ele>
        <time>2014-10-19T13:41:59Z</time>
      </trkpt>
      <trkpt lat="42.97756" lon="0.30284">
        <ele>1871</ele>
        <time>2014-10-19T13:42:01Z</time>
      </trkpt>
      <trkpt lat="42.97755" lon="0.3028">
        <ele>1871</ele>
        <time>2014-10-19T13:42:05Z</time>
      </trkpt>
      <trkpt lat="42.97756" lon="0.30278">
        <ele>1871</ele>
        <time>2014-10-19T13:42:08Z</time>
      </trkpt>
      <trkpt lat="42.97749" lon="0.30249">
        <ele>1875</ele>
        <time>2014-10-19T13:42:37Z</time>
      </trkpt>
      <trkpt lat="42.9775" lon="0.30247">
        <ele>1875</ele>
        <time>2014-10-19T13:42:39Z</time>
      </trkpt>
      <trkpt lat="42.97756" lon="0.30241">
        <ele>1869</ele>
        <time>2014-10-19T13:42:49Z</time>
      </trkpt>
      <trkpt lat="42.97758" lon="0.30234">
        <ele>1865</ele>
        <time>2014-10-19T13:42:57Z</time>
      </trkpt>
      <trkpt lat="42.9777" lon="0.30222">
        <ele>1860</ele>
        <time>2014-10-19T13:43:16Z</time>
      </trkpt>
      <trkpt lat="42.9777" lon="0.30218">
        <ele>1859</ele>
        <time>2014-10-19T13:43:21Z</time>
      </trkpt>
      <trkpt lat="42.97768" lon="0.30216">
        <ele>1859</ele>
        <time>2014-10-19T13:43:23Z</time>
      </trkpt>
      <trkpt lat="42.97768" lon="0.30213">
        <ele>1858</ele>
        <time>2014-10-19T13:43:27Z</time>
      </trkpt>
      <trkpt lat="42.97766" lon="0.3019">
        <ele>1854</ele>
        <time>2014-10-19T13:43:58Z</time>
      </trkpt>
      <trkpt lat="42.97761" lon="0.3018">
        <ele>1853</ele>
        <time>2014-10-19T13:44:05Z</time>
      </trkpt>
      <trkpt lat="42.97761" lon="0.30177">
        <ele>1853</ele>
        <time>2014-10-19T13:44:07Z</time>
      </trkpt>
      <trkpt lat="42.97762" lon="0.30175">
        <ele>1852</ele>
        <time>2014-10-19T13:44:09Z</time>
      </trkpt>
      <trkpt lat="42.97764" lon="0.30174">
        <ele>1852</ele>
        <time>2014-10-19T13:44:11Z</time>
      </trkpt>
      <trkpt lat="42.97765" lon="0.30169">
        <ele>1852</ele>
        <time>2014-10-19T13:44:19Z</time>
      </trkpt>
      <trkpt lat="42.97785" lon="0.30152">
        <ele>1837</ele>
        <time>2014-10-19T13:44:48Z</time>
      </trkpt>
      <trkpt lat="42.97785" lon="0.30149">
        <ele>1836</ele>
        <time>2014-10-19T13:44:51Z</time>
      </trkpt>
      <trkpt lat="42.97783" lon="0.30142">
        <ele>1836</ele>
        <time>2014-10-19T13:44:58Z</time>
      </trkpt>
      <trkpt lat="42.97784" lon="0.30139">
        <ele>1835</ele>
        <time>2014-10-19T13:45:01Z</time>
      </trkpt>
      <trkpt lat="42.97788" lon="0.30137">
        <ele>1835</ele>
        <time>2014-10-19T13:45:05Z</time>
      </trkpt>
      <trkpt lat="42.9779" lon="0.30132">
        <ele>1834</ele>
        <time>2014-10-19T13:45:10Z</time>
      </trkpt>
      <trkpt lat="42.97791" lon="0.30129">
        <ele>1833</ele>
        <time>2014-10-19T13:45:13Z</time>
      </trkpt>
      <trkpt lat="42.97791" lon="0.30127">
        <ele>1833</ele>
        <time>2014-10-19T13:45:16Z</time>
      </trkpt>
      <trkpt lat="42.97785" lon="0.30091">
        <ele>1828</ele>
        <time>2014-10-19T13:45:48Z</time>
      </trkpt>
      <trkpt lat="42.97802" lon="0.3008">
        <ele>1811</ele>
        <time>2014-10-19T13:46:12Z</time>
      </trkpt>
      <trkpt lat="42.97805" lon="0.30078">
        <ele>1811</ele>
        <time>2014-10-19T13:46:16Z</time>
      </trkpt>
      <trkpt lat="42.97804" lon="0.30074">
        <ele>1810</ele>
        <time>2014-10-19T13:46:19Z</time>
      </trkpt>
      <trkpt lat="42.97803" lon="0.30072">
        <ele>1810</ele>
        <time>2014-10-19T13:46:21Z</time>
      </trkpt>
      <trkpt lat="42.978" lon="0.30066">
        <ele>1810</ele>
        <time>2014-10-19T13:46:26Z</time>
      </trkpt>
      <trkpt lat="42.97801" lon="0.30063">
        <ele>1809</ele>
        <time>2014-10-19T13:46:29Z</time>
      </trkpt>
      <trkpt lat="42.97809" lon="0.30059">
        <ele>1809</ele>
        <time>2014-10-19T13:46:40Z</time>
      </trkpt>
      <trkpt lat="42.9781" lon="0.30056">
        <ele>1808</ele>
        <time>2014-10-19T13:46:44Z</time>
      </trkpt>
      <trkpt lat="42.97808" lon="0.3005">
        <ele>1807</ele>
        <time>2014-10-19T13:46:48Z</time>
      </trkpt>
      <trkpt lat="42.97806" lon="0.30048">
        <ele>1807</ele>
        <time>2014-10-19T13:46:50Z</time>
      </trkpt>
      <trkpt lat="42.97794" lon="0.30022">
        <ele>1804</ele>
        <time>2014-10-19T13:47:16Z</time>
      </trkpt>
      <trkpt lat="42.97795" lon="0.30019">
        <ele>1803</ele>
        <time>2014-10-19T13:47:20Z</time>
      </trkpt>
      <trkpt lat="42.97801" lon="0.30017">
        <ele>1802</ele>
        <time>2014-10-19T13:47:26Z</time>
      </trkpt>
      <trkpt lat="42.97821" lon="0.3">
        <ele>1786</ele>
        <time>2014-10-19T13:47:56Z</time>
      </trkpt>
      <trkpt lat="42.97823" lon="0.29997">
        <ele>1786</ele>
        <time>2014-10-19T13:48:00Z</time>
      </trkpt>
      <trkpt lat="42.97823" lon="0.29995">
        <ele>1786</ele>
        <time>2014-10-19T13:48:02Z</time>
      </trkpt>
      <trkpt lat="42.97828" lon="0.29991">
        <ele>1786</ele>
        <time>2014-10-19T13:48:10Z</time>
      </trkpt>
      <trkpt lat="42.97848" lon="0.29975">
        <ele>1776</ele>
        <time>2014-10-19T13:48:40Z</time>
      </trkpt>
      <trkpt lat="42.97865" lon="0.29957">
        <ele>1771</ele>
        <time>2014-10-19T13:49:10Z</time>
      </trkpt>
      <trkpt lat="42.97887" lon="0.29937">
        <ele>1767</ele>
        <time>2014-10-19T13:49:40Z</time>
      </trkpt>
      <trkpt lat="42.97912" lon="0.2992">
        <ele>1757</ele>
        <time>2014-10-19T13:50:10Z</time>
      </trkpt>
      <trkpt lat="42.9793" lon="0.299">
        <ele>1742</ele>
        <time>2014-10-19T13:50:40Z</time>
      </trkpt>
      <trkpt lat="42.97948" lon="0.29878">
        <ele>1735</ele>
        <time>2014-10-19T13:51:06Z</time>
      </trkpt>
      <trkpt lat="42.97948" lon="0.29875">
        <ele>1734</ele>
        <time>2014-10-19T13:51:09Z</time>
      </trkpt>
      <trkpt lat="42.97946" lon="0.29873">
        <ele>1734</ele>
        <time>2014-10-19T13:51:12Z</time>
      </trkpt>
      <trkpt lat="42.97944" lon="0.2987">
        <ele>1734</ele>
        <time>2014-10-19T13:51:16Z</time>
      </trkpt>
      <trkpt lat="42.97944" lon="0.29865">
        <ele>1733</ele>
        <time>2014-10-19T13:51:23Z</time>
      </trkpt>
      <trkpt lat="42.97945" lon="0.29862">
        <ele>1733</ele>
        <time>2014-10-19T13:51:26Z</time>
      </trkpt>
      <trkpt lat="42.97948" lon="0.2986">
        <ele>1732</ele>
        <time>2014-10-19T13:51:30Z</time>
      </trkpt>
      <trkpt lat="42.97948" lon="0.29857">
        <ele>1732</ele>
        <time>2014-10-19T13:51:33Z</time>
      </trkpt>
      <trkpt lat="42.97946" lon="0.29853">
        <ele>1731</ele>
        <time>2014-10-19T13:51:39Z</time>
      </trkpt>
      <trkpt lat="42.97945" lon="0.2985">
        <ele>1731</ele>
        <time>2014-10-19T13:51:41Z</time>
      </trkpt>
      <trkpt lat="42.97945" lon="0.29846">
        <ele>1730</ele>
        <time>2014-10-19T13:51:45Z</time>
      </trkpt>
      <trkpt lat="42.97956" lon="0.29819">
        <ele>1714</ele>
        <time>2014-10-19T13:52:16Z</time>
      </trkpt>
      <trkpt lat="42.97967" lon="0.29793">
        <ele>1711</ele>
        <time>2014-10-19T13:52:45Z</time>
      </trkpt>
      <trkpt lat="42.97969" lon="0.29789">
        <ele>1710</ele>
        <time>2014-10-19T13:52:49Z</time>
      </trkpt>
      <trkpt lat="42.97968" lon="0.29781">
        <ele>1709</ele>
        <time>2014-10-19T13:52:55Z</time>
      </trkpt>
      <trkpt lat="42.97968" lon="0.29777">
        <ele>1708</ele>
        <time>2014-10-19T13:53:44Z</time>
      </trkpt>
      <trkpt lat="42.9797" lon="0.29777">
        <ele>1708</ele>
        <time>2014-10-19T13:55:09Z</time>
      </trkpt>
      <trkpt lat="42.97972" lon="0.29776">
        <ele>1708</ele>
        <time>2014-10-19T13:56:17Z</time>
      </trkpt>
      <trkpt lat="42.97973" lon="0.29775">
        <ele>1708</ele>
        <time>2014-10-19T13:58:57Z</time>
      </trkpt>
      <trkpt lat="42.97975" lon="0.29775">
        <ele>1708</ele>
        <time>2014-10-19T13:59:51Z</time>
      </trkpt>
      <trkpt lat="42.9798" lon="0.29778">
        <ele>1708</ele>
        <time>2014-10-19T13:59:59Z</time>
      </trkpt>
      <trkpt lat="42.97982" lon="0.29778">
        <ele>1708</ele>
        <time>2014-10-19T14:00:02Z</time>
      </trkpt>
      <trkpt lat="42.97983" lon="0.29778">
        <ele>1708</ele>
        <time>2014-10-19T14:00:06Z</time>
      </trkpt>
      <trkpt lat="42.97985" lon="0.29777">
        <ele>1708</ele>
        <time>2014-10-19T14:00:12Z</time>
      </trkpt>
      <trkpt lat="42.97992" lon="0.29754">
        <ele>1702</ele>
        <time>2014-10-19T14:00:47Z</time>
      </trkpt>
      <trkpt lat="42.98001" lon="0.29714">
        <ele>1685</ele>
        <time>2014-10-19T14:01:17Z</time>
      </trkpt>
      <trkpt lat="42.98009" lon="0.29704">
        <ele>1683</ele>
        <time>2014-10-19T14:01:27Z</time>
      </trkpt>
      <trkpt lat="42.98039" lon="0.29712">
        <ele>1680</ele>
        <time>2014-10-19T14:01:57Z</time>
      </trkpt>
      <trkpt lat="42.98065" lon="0.29716">
        <ele>1677</ele>
        <time>2014-10-19T14:02:32Z</time>
      </trkpt>
      <trkpt lat="42.98088" lon="0.29694">
        <ele>1656</ele>
        <time>2014-10-19T14:03:02Z</time>
      </trkpt>
      <trkpt lat="42.98109" lon="0.29682">
        <ele>1653</ele>
        <time>2014-10-19T14:03:32Z</time>
      </trkpt>
      <trkpt lat="42.98115" lon="0.2968">
        <ele>1651</ele>
        <time>2014-10-19T14:03:41Z</time>
      </trkpt>
      <trkpt lat="42.98117" lon="0.29682">
        <ele>1651</ele>
        <time>2014-10-19T14:03:53Z</time>
      </trkpt>
      <trkpt lat="42.98117" lon="0.29679">
        <ele>1651</ele>
        <time>2014-10-19T14:04:23Z</time>
      </trkpt>
      <trkpt lat="42.98116" lon="0.29678">
        <ele>1651</ele>
        <time>2014-10-19T14:04:41Z</time>
      </trkpt>
      <trkpt lat="42.98119" lon="0.29671">
        <ele>1650</ele>
        <time>2014-10-19T14:05:05Z</time>
      </trkpt>
      <trkpt lat="42.98121" lon="0.29671">
        <ele>1649</ele>
        <time>2014-10-19T14:05:08Z</time>
      </trkpt>
      <trkpt lat="42.98123" lon="0.2967">
        <ele>1649</ele>
        <time>2014-10-19T14:05:11Z</time>
      </trkpt>
      <trkpt lat="42.98124" lon="0.29668">
        <ele>1649</ele>
        <time>2014-10-19T14:05:33Z</time>
      </trkpt>
      <trkpt lat="42.98125" lon="0.29664">
        <ele>1640</ele>
        <time>2014-10-19T14:05:37Z</time>
      </trkpt>
      <trkpt lat="42.98125" lon="0.2966">
        <ele>1640</ele>
        <time>2014-10-19T14:06:20Z</time>
      </trkpt>
      <trkpt lat="42.98125" lon="0.29657">
        <ele>1640</ele>
        <time>2014-10-19T14:06:22Z</time>
      </trkpt>
      <trkpt lat="42.98126" lon="0.29654">
        <ele>1639</ele>
        <time>2014-10-19T14:06:24Z</time>
      </trkpt>
      <trkpt lat="42.98133" lon="0.29651">
        <ele>1637</ele>
        <time>2014-10-19T14:06:34Z</time>
      </trkpt>
      <trkpt lat="42.9814" lon="0.29657">
        <ele>1636</ele>
        <time>2014-10-19T14:06:44Z</time>
      </trkpt>
      <trkpt lat="42.98142" lon="0.29657">
        <ele>1635</ele>
        <time>2014-10-19T14:06:47Z</time>
      </trkpt>
      <trkpt lat="42.98145" lon="0.29653">
        <ele>1635</ele>
        <time>2014-10-19T14:06:51Z</time>
      </trkpt>
      <trkpt lat="42.98151" lon="0.29654">
        <ele>1633</ele>
        <time>2014-10-19T14:06:58Z</time>
      </trkpt>
      <trkpt lat="42.98152" lon="0.29651">
        <ele>1633</ele>
        <time>2014-10-19T14:07:01Z</time>
      </trkpt>
      <trkpt lat="42.98151" lon="0.29647">
        <ele>1634</ele>
        <time>2014-10-19T14:07:04Z</time>
      </trkpt>
      <trkpt lat="42.98151" lon="0.29645">
        <ele>1634</ele>
        <time>2014-10-19T14:07:06Z</time>
      </trkpt>
      <trkpt lat="42.98152" lon="0.29644">
        <ele>1634</ele>
        <time>2014-10-19T14:07:08Z</time>
      </trkpt>
      <trkpt lat="42.98155" lon="0.29641">
        <ele>1633</ele>
        <time>2014-10-19T14:07:12Z</time>
      </trkpt>
      <trkpt lat="42.98159" lon="0.29621">
        <ele>1631</ele>
        <time>2014-10-19T14:07:28Z</time>
      </trkpt>
      <trkpt lat="42.98169" lon="0.29617">
        <ele>1610</ele>
        <time>2014-10-19T14:07:38Z</time>
      </trkpt>
      <trkpt lat="42.98174" lon="0.29622">
        <ele>1610</ele>
        <time>2014-10-19T14:07:44Z</time>
      </trkpt>
      <trkpt lat="42.98176" lon="0.2963">
        <ele>1611</ele>
        <time>2014-10-19T14:07:53Z</time>
      </trkpt>
      <trkpt lat="42.98189" lon="0.29638">
        <ele>1610</ele>
        <time>2014-10-19T14:08:19Z</time>
      </trkpt>
      <trkpt lat="42.98195" lon="0.29646">
        <ele>1609</ele>
        <time>2014-10-19T14:08:29Z</time>
      </trkpt>
      <trkpt lat="42.98218" lon="0.2965">
        <ele>1603</ele>
        <time>2014-10-19T14:08:59Z</time>
      </trkpt>
      <trkpt lat="42.9824" lon="0.2964">
        <ele>1599</ele>
        <time>2014-10-19T14:09:31Z</time>
      </trkpt>
      <trkpt lat="42.98245" lon="0.29638">
        <ele>1599</ele>
        <time>2014-10-19T14:09:39Z</time>
      </trkpt>
      <trkpt lat="42.98257" lon="0.29612">
        <ele>1575</ele>
        <time>2014-10-19T14:10:10Z</time>
      </trkpt>
      <trkpt lat="42.98275" lon="0.296">
        <ele>1572</ele>
        <time>2014-10-19T14:10:41Z</time>
      </trkpt>
      <trkpt lat="42.98294" lon="0.29574">
        <ele>1563</ele>
        <time>2014-10-19T14:11:11Z</time>
      </trkpt>
      <trkpt lat="42.98297" lon="0.29571">
        <ele>1562</ele>
        <time>2014-10-19T14:11:19Z</time>
      </trkpt>
      <trkpt lat="42.98317" lon="0.2954">
        <ele>1558</ele>
        <time>2014-10-19T14:11:50Z</time>
      </trkpt>
      <trkpt lat="42.98321" lon="0.29535">
        <ele>1557</ele>
        <time>2014-10-19T14:12:02Z</time>
      </trkpt>
      <trkpt lat="42.9833" lon="0.29537">
        <ele>1556</ele>
        <time>2014-10-19T14:12:34Z</time>
      </trkpt>
      <trkpt lat="42.98332" lon="0.29538">
        <ele>1556</ele>
        <time>2014-10-19T14:12:44Z</time>
      </trkpt>
      <trkpt lat="42.98333" lon="0.2954">
        <ele>1556</ele>
        <time>2014-10-19T14:14:41Z</time>
      </trkpt>
      <trkpt lat="42.98334" lon="0.29546">
        <ele>1536</ele>
        <time>2014-10-19T14:14:47Z</time>
      </trkpt>
      <trkpt lat="42.98339" lon="0.29547">
        <ele>1536</ele>
        <time>2014-10-19T14:14:55Z</time>
      </trkpt>
      <trkpt lat="42.98362" lon="0.29577">
        <ele>1534</ele>
        <time>2014-10-19T14:15:25Z</time>
      </trkpt>
      <trkpt lat="42.98364" lon="0.29601">
        <ele>1530</ele>
        <time>2014-10-19T14:15:43Z</time>
      </trkpt>
      <trkpt lat="42.98366" lon="0.29602">
        <ele>1530</ele>
        <time>2014-10-19T14:15:46Z</time>
      </trkpt>
      <trkpt lat="42.98371" lon="0.296">
        <ele>1528</ele>
        <time>2014-10-19T14:15:52Z</time>
      </trkpt>
      <trkpt lat="42.98375" lon="0.29607">
        <ele>1527</ele>
        <time>2014-10-19T14:15:59Z</time>
      </trkpt>
      <trkpt lat="42.98379" lon="0.29624">
        <ele>1525</ele>
        <time>2014-10-19T14:16:11Z</time>
      </trkpt>
      <trkpt lat="42.98378" lon="0.29627">
        <ele>1525</ele>
        <time>2014-10-19T14:16:13Z</time>
      </trkpt>
      <trkpt lat="42.98377" lon="0.29628">
        <ele>1526</ele>
        <time>2014-10-19T14:16:15Z</time>
      </trkpt>
      <trkpt lat="42.98373" lon="0.2963">
        <ele>1527</ele>
        <time>2014-10-19T14:16:21Z</time>
      </trkpt>
      <trkpt lat="42.98373" lon="0.29628">
        <ele>1527</ele>
        <time>2014-10-19T14:17:20Z</time>
      </trkpt>
      <trkpt lat="42.98375" lon="0.29627">
        <ele>1526</ele>
        <time>2014-10-19T14:34:48Z</time>
      </trkpt>
      <trkpt lat="42.98376" lon="0.29627">
        <ele>1526</ele>
        <time>2014-10-19T14:35:31Z</time>
      </trkpt>
      <trkpt lat="42.98376" lon="0.29632">
        <ele>1526</ele>
        <time>2014-10-19T14:37:36Z</time>
      </trkpt>
      <trkpt lat="42.98367" lon="0.29652">
        <ele>1528</ele>
        <time>2014-10-19T14:38:06Z</time>
      </trkpt>
      <trkpt lat="42.98366" lon="0.29655">
        <ele>1528</ele>
        <time>2014-10-19T14:38:09Z</time>
      </trkpt>
      <trkpt lat="42.98365" lon="0.29658">
        <ele>1529</ele>
        <time>2014-10-19T14:38:12Z</time>
      </trkpt>
      <trkpt lat="42.98364" lon="0.2966">
        <ele>1529</ele>
        <time>2014-10-19T14:38:17Z</time>
      </trkpt>
      <trkpt lat="42.98363" lon="0.29661">
        <ele>1530</ele>
        <time>2014-10-19T14:38:20Z</time>
      </trkpt>
      <trkpt lat="42.98361" lon="0.29663">
        <ele>1531</ele>
        <time>2014-10-19T14:38:23Z</time>
      </trkpt>
      <trkpt lat="42.98349" lon="0.29691">
        <ele>1523</ele>
        <time>2014-10-19T14:38:46Z</time>
      </trkpt>
      <trkpt lat="42.98341" lon="0.29729">
        <ele>1521</ele>
        <time>2014-10-19T14:39:16Z</time>
      </trkpt>
      <trkpt lat="42.98333" lon="0.2975">
        <ele>1531</ele>
        <time>2014-10-19T14:39:40Z</time>
      </trkpt>
      <trkpt lat="42.98333" lon="0.29753">
        <ele>1532</ele>
        <time>2014-10-19T14:39:43Z</time>
      </trkpt>
      <trkpt lat="42.98332" lon="0.29758">
        <ele>1536</ele>
        <time>2014-10-19T14:39:50Z</time>
      </trkpt>
      <trkpt lat="42.98332" lon="0.29761">
        <ele>1537</ele>
        <time>2014-10-19T14:39:55Z</time>
      </trkpt>
      <trkpt lat="42.9833" lon="0.2977">
        <ele>1540</ele>
        <time>2014-10-19T14:40:03Z</time>
      </trkpt>
      <trkpt lat="42.98327" lon="0.29779">
        <ele>1542</ele>
        <time>2014-10-19T14:40:11Z</time>
      </trkpt>
      <trkpt lat="42.98321" lon="0.29812">
        <ele>1537</ele>
        <time>2014-10-19T14:40:37Z</time>
      </trkpt>
      <trkpt lat="42.98324" lon="0.29847">
        <ele>1527</ele>
        <time>2014-10-19T14:41:03Z</time>
      </trkpt>
      <trkpt lat="42.9833" lon="0.29862">
        <ele>1530</ele>
        <time>2014-10-19T14:41:17Z</time>
      </trkpt>
      <trkpt lat="42.98331" lon="0.29864">
        <ele>1530</ele>
        <time>2014-10-19T14:41:20Z</time>
      </trkpt>
      <trkpt lat="42.98332" lon="0.29866">
        <ele>1531</ele>
        <time>2014-10-19T14:41:24Z</time>
      </trkpt>
      <trkpt lat="42.98332" lon="0.29869">
        <ele>1531</ele>
        <time>2014-10-19T14:41:28Z</time>
      </trkpt>
      <trkpt lat="42.98334" lon="0.29882">
        <ele>1497</ele>
        <time>2014-10-19T14:41:38Z</time>
      </trkpt>
      <trkpt lat="42.98337" lon="0.29887">
        <ele>1498</ele>
        <time>2014-10-19T14:41:43Z</time>
      </trkpt>
      <trkpt lat="42.9834" lon="0.29902">
        <ele>1501</ele>
        <time>2014-10-19T14:41:56Z</time>
      </trkpt>
      <trkpt lat="42.98338" lon="0.29921">
        <ele>1507</ele>
        <time>2014-10-19T14:42:14Z</time>
      </trkpt>
      <trkpt lat="42.98339" lon="0.29928">
        <ele>1502</ele>
        <time>2014-10-19T14:42:33Z</time>
      </trkpt>
      <trkpt lat="42.98341" lon="0.29929">
        <ele>1501</ele>
        <time>2014-10-19T14:42:41Z</time>
      </trkpt>
      <trkpt lat="42.98337" lon="0.29939">
        <ele>1497</ele>
        <time>2014-10-19T14:43:13Z</time>
      </trkpt>
      <trkpt lat="42.98331" lon="0.29956">
        <ele>1526</ele>
        <time>2014-10-19T14:43:44Z</time>
      </trkpt>
      <trkpt lat="42.98331" lon="0.29962">
        <ele>1525</ele>
        <time>2014-10-19T14:43:57Z</time>
      </trkpt>
      <trkpt lat="42.98327" lon="0.29977">
        <ele>1523</ele>
        <time>2014-10-19T14:44:06Z</time>
      </trkpt>
      <trkpt lat="42.98326" lon="0.29985">
        <ele>1520</ele>
        <time>2014-10-19T14:44:08Z</time>
      </trkpt>
      <trkpt lat="42.98326" lon="0.29991">
        <ele>1517</ele>
        <time>2014-10-19T14:44:12Z</time>
      </trkpt>
      <trkpt lat="42.98325" lon="0.29999">
        <ele>1516</ele>
        <time>2014-10-19T14:44:19Z</time>
      </trkpt>
      <trkpt lat="42.98324" lon="0.30006">
        <ele>1514</ele>
        <time>2014-10-19T14:44:22Z</time>
      </trkpt>
      <trkpt lat="42.98324" lon="0.30024">
        <ele>1518</ele>
        <time>2014-10-19T14:44:35Z</time>
      </trkpt>
      <trkpt lat="42.98325" lon="0.30031">
        <ele>1518</ele>
        <time>2014-10-19T14:44:42Z</time>
      </trkpt>
      <trkpt lat="42.98326" lon="0.30046">
        <ele>1518</ele>
        <time>2014-10-19T14:44:50Z</time>
      </trkpt>
      <trkpt lat="42.98325" lon="0.30057">
        <ele>1516</ele>
        <time>2014-10-19T14:44:58Z</time>
      </trkpt>
      <trkpt lat="42.98326" lon="0.30063">
        <ele>1514</ele>
        <time>2014-10-19T14:45:08Z</time>
      </trkpt>
      <trkpt lat="42.98324" lon="0.3007">
        <ele>1512</ele>
        <time>2014-10-19T14:45:25Z</time>
      </trkpt>
      <trkpt lat="42.98322" lon="0.30075">
        <ele>1511</ele>
        <time>2014-10-19T14:45:29Z</time>
      </trkpt>
      <trkpt lat="42.98321" lon="0.30084">
        <ele>1507</ele>
        <time>2014-10-19T14:45:34Z</time>
      </trkpt>
      <trkpt lat="42.98321" lon="0.30091">
        <ele>1508</ele>
        <time>2014-10-19T14:45:39Z</time>
      </trkpt>
      <trkpt lat="42.98321" lon="0.30097">
        <ele>1509</ele>
        <time>2014-10-19T14:45:45Z</time>
      </trkpt>
      <trkpt lat="42.98314" lon="0.30133">
        <ele>1510</ele>
        <time>2014-10-19T14:46:08Z</time>
      </trkpt>
      <trkpt lat="42.98313" lon="0.30151">
        <ele>1508</ele>
        <time>2014-10-19T14:46:32Z</time>
      </trkpt>
      <trkpt lat="42.98312" lon="0.30158">
        <ele>1507</ele>
        <time>2014-10-19T14:46:36Z</time>
      </trkpt>
      <trkpt lat="42.98309" lon="0.30187">
        <ele>1502</ele>
        <time>2014-10-19T14:47:11Z</time>
      </trkpt>
      <trkpt lat="42.98308" lon="0.30193">
        <ele>1503</ele>
        <time>2014-10-19T14:47:18Z</time>
      </trkpt>
      <trkpt lat="42.98306" lon="0.302">
        <ele>1503</ele>
        <time>2014-10-19T14:47:33Z</time>
      </trkpt>
      <trkpt lat="42.98302" lon="0.30216">
        <ele>1503</ele>
        <time>2014-10-19T14:47:44Z</time>
      </trkpt>
      <trkpt lat="42.98304" lon="0.30225">
        <ele>1501</ele>
        <time>2014-10-19T14:47:48Z</time>
      </trkpt>
      <trkpt lat="42.98305" lon="0.30233">
        <ele>1499</ele>
        <time>2014-10-19T14:47:50Z</time>
      </trkpt>
      <trkpt lat="42.98306" lon="0.30247">
        <ele>1497</ele>
        <time>2014-10-19T14:47:58Z</time>
      </trkpt>
      <trkpt lat="42.98305" lon="0.30255">
        <ele>1490</ele>
        <time>2014-10-19T14:48:09Z</time>
      </trkpt>
      <trkpt lat="42.98303" lon="0.3027">
        <ele>1491</ele>
        <time>2014-10-19T14:48:16Z</time>
      </trkpt>
      <trkpt lat="42.98302" lon="0.30289">
        <ele>1490</ele>
        <time>2014-10-19T14:48:23Z</time>
      </trkpt>
      <trkpt lat="42.98301" lon="0.30297">
        <ele>1490</ele>
        <time>2014-10-19T14:48:26Z</time>
      </trkpt>
      <trkpt lat="42.98299" lon="0.30317">
        <ele>1488</ele>
        <time>2014-10-19T14:48:42Z</time>
      </trkpt>
      <trkpt lat="42.98297" lon="0.30324">
        <ele>1488</ele>
        <time>2014-10-19T14:48:49Z</time>
      </trkpt>
      <trkpt lat="42.98297" lon="0.30348">
        <ele>1479</ele>
        <time>2014-10-19T14:48:59Z</time>
      </trkpt>
      <trkpt lat="42.98295" lon="0.30354">
        <ele>1479</ele>
        <time>2014-10-19T14:49:01Z</time>
      </trkpt>
      <trkpt lat="42.98294" lon="0.30372">
        <ele>1479</ele>
        <time>2014-10-19T14:49:17Z</time>
      </trkpt>
      <trkpt lat="42.9829" lon="0.30399">
        <ele>1478</ele>
        <time>2014-10-19T14:49:40Z</time>
      </trkpt>
      <trkpt lat="42.98288" lon="0.30404">
        <ele>1478</ele>
        <time>2014-10-19T14:49:49Z</time>
      </trkpt>
      <trkpt lat="42.98285" lon="0.30434">
        <ele>1471</ele>
        <time>2014-10-19T14:50:04Z</time>
      </trkpt>
      <trkpt lat="42.98284" lon="0.3044">
        <ele>1470</ele>
        <time>2014-10-19T14:50:08Z</time>
      </trkpt>
      <trkpt lat="42.98282" lon="0.30452">
        <ele>1469</ele>
        <time>2014-10-19T14:50:29Z</time>
      </trkpt>
      <trkpt lat="42.98281" lon="0.30466">
        <ele>1468</ele>
        <time>2014-10-19T14:50:37Z</time>
      </trkpt>
      <trkpt lat="42.98276" lon="0.30512">
        <ele>1464</ele>
        <time>2014-10-19T14:51:06Z</time>
      </trkpt>
      <trkpt lat="42.98277" lon="0.30524">
        <ele>1462</ele>
        <time>2014-10-19T14:51:15Z</time>
      </trkpt>
      <trkpt lat="42.98277" lon="0.3053">
        <ele>1462</ele>
        <time>2014-10-19T14:51:20Z</time>
      </trkpt>
      <trkpt lat="42.98277" lon="0.30537">
        <ele>1462</ele>
        <time>2014-10-19T14:51:43Z</time>
      </trkpt>
      <trkpt lat="42.98276" lon="0.30546">
        <ele>1462</ele>
        <time>2014-10-19T14:51:47Z</time>
      </trkpt>
      <trkpt lat="42.98275" lon="0.30553">
        <ele>1462</ele>
        <time>2014-10-19T14:51:50Z</time>
      </trkpt>
      <trkpt lat="42.98275" lon="0.30564">
        <ele>1464</ele>
        <time>2014-10-19T14:52:14Z</time>
      </trkpt>
      <trkpt lat="42.98276" lon="0.30569">
        <ele>1464</ele>
        <time>2014-10-19T14:52:24Z</time>
      </trkpt>
      <trkpt lat="42.98279" lon="0.30572">
        <ele>1463</ele>
        <time>2014-10-19T14:52:33Z</time>
      </trkpt>
      <trkpt lat="42.98282" lon="0.30585">
        <ele>1461</ele>
        <time>2014-10-19T14:52:42Z</time>
      </trkpt>
      <trkpt lat="42.98285" lon="0.30586">
        <ele>1460</ele>
        <time>2014-10-19T14:52:45Z</time>
      </trkpt>
      <trkpt lat="42.98289" lon="0.3059">
        <ele>1458</ele>
        <time>2014-10-19T14:53:36Z</time>
      </trkpt>
      <trkpt lat="42.98291" lon="0.30592">
        <ele>1456</ele>
        <time>2014-10-19T14:53:41Z</time>
      </trkpt>
      <trkpt lat="42.98294" lon="0.30601">
        <ele>1455</ele>
        <time>2014-10-19T14:53:52Z</time>
      </trkpt>
      <trkpt lat="42.98296" lon="0.30605">
        <ele>1454</ele>
        <time>2014-10-19T14:54:03Z</time>
      </trkpt>
      <trkpt lat="42.98298" lon="0.30605">
        <ele>1453</ele>
        <time>2014-10-19T14:54:09Z</time>
      </trkpt>
      <trkpt lat="42.98301" lon="0.30609">
        <ele>1452</ele>
        <time>2014-10-19T14:54:52Z</time>
      </trkpt>
      <trkpt lat="42.98305" lon="0.30615">
        <ele>1451</ele>
        <time>2014-10-19T14:55:15Z</time>
      </trkpt>
      <trkpt lat="42.98306" lon="0.30621">
        <ele>1451</ele>
        <time>2014-10-19T14:55:21Z</time>
      </trkpt>
      <trkpt lat="42.98312" lon="0.3063">
        <ele>1449</ele>
        <time>2014-10-19T14:55:37Z</time>
      </trkpt>
      <trkpt lat="42.98316" lon="0.30632">
        <ele>1448</ele>
        <time>2014-10-19T14:55:48Z</time>
      </trkpt>
      <trkpt lat="42.98324" lon="0.30637">
        <ele>1445</ele>
        <time>2014-10-19T14:56:14Z</time>
      </trkpt>
      <trkpt lat="42.98328" lon="0.3064">
        <ele>1443</ele>
        <time>2014-10-19T14:56:21Z</time>
      </trkpt>
      <trkpt lat="42.98341" lon="0.3065">
        <ele>1409</ele>
        <time>2014-10-19T14:56:35Z</time>
      </trkpt>
      <trkpt lat="42.98346" lon="0.30653">
        <ele>1409</ele>
        <time>2014-10-19T14:56:39Z</time>
      </trkpt>
      <trkpt lat="42.9835" lon="0.30656">
        <ele>1408</ele>
        <time>2014-10-19T14:56:46Z</time>
      </trkpt>
      <trkpt lat="42.98352" lon="0.30663">
        <ele>1408</ele>
        <time>2014-10-19T14:56:53Z</time>
      </trkpt>
      <trkpt lat="42.98366" lon="0.30683">
        <ele>1403</ele>
        <time>2014-10-19T14:57:10Z</time>
      </trkpt>
      <trkpt lat="42.9837" lon="0.3069">
        <ele>1402</ele>
        <time>2014-10-19T14:57:15Z</time>
      </trkpt>
      <trkpt lat="42.98373" lon="0.30695">
        <ele>1401</ele>
        <time>2014-10-19T14:57:24Z</time>
      </trkpt>
      <trkpt lat="42.98381" lon="0.30712">
        <ele>1399</ele>
        <time>2014-10-19T14:57:48Z</time>
      </trkpt>
      <trkpt lat="42.98383" lon="0.30718">
        <ele>1398</ele>
        <time>2014-10-19T14:58:08Z</time>
      </trkpt>
      <trkpt lat="42.98393" lon="0.30738">
        <ele>1393</ele>
        <time>2014-10-19T14:58:20Z</time>
      </trkpt>
      <trkpt lat="42.98395" lon="0.30744">
        <ele>1392</ele>
        <time>2014-10-19T14:58:23Z</time>
      </trkpt>
      <trkpt lat="42.98397" lon="0.30749">
        <ele>1390</ele>
        <time>2014-10-19T14:58:30Z</time>
      </trkpt>
      <trkpt lat="42.98399" lon="0.30756">
        <ele>1391</ele>
        <time>2014-10-19T14:58:39Z</time>
      </trkpt>
      <trkpt lat="42.98414" lon="0.308">
        <ele>1391</ele>
        <time>2014-10-19T14:59:10Z</time>
      </trkpt>
      <trkpt lat="42.98412" lon="0.30806">
        <ele>1390</ele>
        <time>2014-10-19T14:59:17Z</time>
      </trkpt>
      <trkpt lat="42.98417" lon="0.30831">
        <ele>1369</ele>
        <time>2014-10-19T14:59:39Z</time>
      </trkpt>
      <trkpt lat="42.98416" lon="0.30858">
        <ele>1385</ele>
        <time>2014-10-19T15:00:10Z</time>
      </trkpt>
      <trkpt lat="42.9843" lon="0.30919">
        <ele>1349</ele>
        <time>2014-10-19T15:00:43Z</time>
      </trkpt>
      <trkpt lat="42.98432" lon="0.30925">
        <ele>1346</ele>
        <time>2014-10-19T15:00:53Z</time>
      </trkpt>
      <trkpt lat="42.98435" lon="0.30948">
        <ele>1339</ele>
        <time>2014-10-19T15:01:23Z</time>
      </trkpt>
      <trkpt lat="42.98435" lon="0.30982">
        <ele>1339</ele>
        <time>2014-10-19T15:01:44Z</time>
      </trkpt>
      <trkpt lat="42.98453" lon="0.31008">
        <ele>1331</ele>
        <time>2014-10-19T15:02:08Z</time>
      </trkpt>
      <trkpt lat="42.98453" lon="0.31014">
        <ele>1331</ele>
        <time>2014-10-19T15:02:12Z</time>
      </trkpt>
      <trkpt lat="42.98455" lon="0.31019">
        <ele>1330</ele>
        <time>2014-10-19T15:02:16Z</time>
      </trkpt>
      <trkpt lat="42.98457" lon="0.31024">
        <ele>1329</ele>
        <time>2014-10-19T15:02:21Z</time>
      </trkpt>
      <trkpt lat="42.98461" lon="0.31029">
        <ele>1328</ele>
        <time>2014-10-19T15:02:28Z</time>
      </trkpt>
      <trkpt lat="42.9847" lon="0.3106">
        <ele>1325</ele>
        <time>2014-10-19T15:02:58Z</time>
      </trkpt>
      <trkpt lat="42.9848" lon="0.31095">
        <ele>1321</ele>
        <time>2014-10-19T15:03:32Z</time>
      </trkpt>
      <trkpt lat="42.98487" lon="0.31105">
        <ele>1321</ele>
        <time>2014-10-19T15:03:52Z</time>
      </trkpt>
      <trkpt lat="42.985" lon="0.31114">
        <ele>1320</ele>
        <time>2014-10-19T15:04:05Z</time>
      </trkpt>
      <trkpt lat="42.98502" lon="0.3112">
        <ele>1296</ele>
        <time>2014-10-19T15:04:09Z</time>
      </trkpt>
      <trkpt lat="42.98523" lon="0.31138">
        <ele>1295</ele>
        <time>2014-10-19T15:04:56Z</time>
      </trkpt>
      <trkpt lat="42.98533" lon="0.31139">
        <ele>1292</ele>
        <time>2014-10-19T15:05:26Z</time>
      </trkpt>
      <trkpt lat="42.98545" lon="0.31144">
        <ele>1290</ele>
        <time>2014-10-19T15:05:45Z</time>
      </trkpt>
      <trkpt lat="42.98557" lon="0.31155">
        <ele>1288</ele>
        <time>2014-10-19T15:06:02Z</time>
      </trkpt>
      <trkpt lat="42.98564" lon="0.31146">
        <ele>1286</ele>
        <time>2014-10-19T15:06:34Z</time>
      </trkpt>
      <trkpt lat="42.98576" lon="0.31138">
        <ele>1285</ele>
        <time>2014-10-19T15:06:49Z</time>
      </trkpt>
      <trkpt lat="42.98579" lon="0.3113">
        <ele>1284</ele>
        <time>2014-10-19T15:06:59Z</time>
      </trkpt>
      <trkpt lat="42.98608" lon="0.31123">
        <ele>1266</ele>
        <time>2014-10-19T15:07:39Z</time>
      </trkpt>
      <trkpt lat="42.98634" lon="0.31122">
        <ele>1264</ele>
        <time>2014-10-19T15:08:13Z</time>
      </trkpt>
      <trkpt lat="42.98686" lon="0.31103">
        <ele>1251</ele>
        <time>2014-10-19T15:08:45Z</time>
      </trkpt>
      <trkpt lat="42.98718" lon="0.31102">
        <ele>1249</ele>
        <time>2014-10-19T15:09:15Z</time>
      </trkpt>
      <trkpt lat="42.98722" lon="0.31101">
        <ele>1249</ele>
        <time>2014-10-19T15:09:19Z</time>
      </trkpt>
      <trkpt lat="42.98724" lon="0.31103">
        <ele>1249</ele>
        <time>2014-10-19T15:09:21Z</time>
      </trkpt>
      <trkpt lat="42.98727" lon="0.31106">
        <ele>1249</ele>
        <time>2014-10-19T15:09:23Z</time>
      </trkpt>
      <trkpt lat="42.98759" lon="0.31138">
        <ele>1242</ele>
        <time>2014-10-19T15:09:53Z</time>
      </trkpt>
      <trkpt lat="42.98764" lon="0.31146">
        <ele>1244</ele>
        <time>2014-10-19T15:09:59Z</time>
      </trkpt>
      <trkpt lat="42.98781" lon="0.31186">
        <ele>1253</ele>
        <time>2014-10-19T15:10:30Z</time>
      </trkpt>
      <trkpt lat="42.98785" lon="0.3119">
        <ele>1252</ele>
        <time>2014-10-19T15:10:33Z</time>
      </trkpt>
      <trkpt lat="42.98797" lon="0.31218">
        <ele>1252</ele>
        <time>2014-10-19T15:10:55Z</time>
      </trkpt>
      <trkpt lat="42.98804" lon="0.3125">
        <ele>1251</ele>
        <time>2014-10-19T15:11:27Z</time>
      </trkpt>
      <trkpt lat="42.98809" lon="0.31262">
        <ele>1255</ele>
        <time>2014-10-19T15:11:35Z</time>
      </trkpt>
      <trkpt lat="42.98822" lon="0.31282">
        <ele>1254</ele>
        <time>2014-10-19T15:12:06Z</time>
      </trkpt>
      <trkpt lat="42.98827" lon="0.31287">
        <ele>1254</ele>
        <time>2014-10-19T15:12:10Z</time>
      </trkpt>
      <trkpt lat="42.98831" lon="0.3129">
        <ele>1254</ele>
        <time>2014-10-19T15:12:17Z</time>
      </trkpt>
      <trkpt lat="42.98833" lon="0.31296">
        <ele>1254</ele>
        <time>2014-10-19T15:12:22Z</time>
      </trkpt>
      <trkpt lat="42.98857" lon="0.31339">
        <ele>1237</ele>
        <time>2014-10-19T15:12:54Z</time>
      </trkpt>
      <trkpt lat="42.98864" lon="0.31343">
        <ele>1235</ele>
        <time>2014-10-19T15:13:06Z</time>
      </trkpt>
      <trkpt lat="42.98865" lon="0.31346">
        <ele>1235</ele>
        <time>2014-10-19T15:13:10Z</time>
      </trkpt>
      <trkpt lat="42.98867" lon="0.31355">
        <ele>1236</ele>
        <time>2014-10-19T15:13:16Z</time>
      </trkpt>
      <trkpt lat="42.98891" lon="0.31377">
        <ele>1233</ele>
        <time>2014-10-19T15:13:37Z</time>
      </trkpt>
      <trkpt lat="42.9889" lon="0.31379">
        <ele>1233</ele>
        <time>2014-10-19T15:13:41Z</time>
      </trkpt>
      <trkpt lat="42.98891" lon="0.31383">
        <ele>1234</ele>
        <time>2014-10-19T15:13:44Z</time>
      </trkpt>
      <trkpt lat="42.98892" lon="0.31385">
        <ele>1234</ele>
        <time>2014-10-19T15:13:46Z</time>
      </trkpt>
      <trkpt lat="42.98894" lon="0.31388">
        <ele>1233</ele>
        <time>2014-10-19T15:13:48Z</time>
      </trkpt>
      <trkpt lat="42.98902" lon="0.31414">
        <ele>1232</ele>
        <time>2014-10-19T15:14:06Z</time>
      </trkpt>
      <trkpt lat="42.98904" lon="0.3142">
        <ele>1241</ele>
        <time>2014-10-19T15:14:10Z</time>
      </trkpt>
      <trkpt lat="42.98905" lon="0.31427">
        <ele>1242</ele>
        <time>2014-10-19T15:14:15Z</time>
      </trkpt>
      <trkpt lat="42.98915" lon="0.31443">
        <ele>1248</ele>
        <time>2014-10-19T15:14:27Z</time>
      </trkpt>
      <trkpt lat="42.98918" lon="0.3145">
        <ele>1225</ele>
        <time>2014-10-19T15:14:31Z</time>
      </trkpt>
      <trkpt lat="42.98939" lon="0.31494">
        <ele>1232</ele>
        <time>2014-10-19T15:15:01Z</time>
      </trkpt>
      <trkpt lat="42.9895" lon="0.31506">
        <ele>1245</ele>
        <time>2014-10-19T15:15:13Z</time>
      </trkpt>
      <trkpt lat="42.98976" lon="0.31525">
        <ele>1241</ele>
        <time>2014-10-19T15:15:44Z</time>
      </trkpt>
      <trkpt lat="42.99013" lon="0.31544">
        <ele>1224</ele>
        <time>2014-10-19T15:16:15Z</time>
      </trkpt>
      <trkpt lat="42.99044" lon="0.31582">
        <ele>1224</ele>
        <time>2014-10-19T15:16:45Z</time>
      </trkpt>
      <trkpt lat="42.99068" lon="0.31618">
        <ele>1235</ele>
        <time>2014-10-19T15:17:15Z</time>
      </trkpt>
      <trkpt lat="42.99098" lon="0.31652">
        <ele>1234</ele>
        <time>2014-10-19T15:17:45Z</time>
      </trkpt>
      <trkpt lat="42.9913" lon="0.31681">
        <ele>1240</ele>
        <time>2014-10-19T15:18:15Z</time>
      </trkpt>
      <trkpt lat="42.99149" lon="0.31681">
        <ele>1241</ele>
        <time>2014-10-19T15:18:42Z</time>
      </trkpt>
    </trkseg>
  </trk>
</gpx>